<?xml version="1.0" encoding="UTF-8" standalone="no" ?>
<gpx xmlns="http://www.topografix.com/GPX/1/1" xmlns:xsi="http://www.w3.org/2001/XMLSchema-instance" xsi:schemaLocation="http://www.topografix.com/GPX/1/1 http://www.topografix.com/GPX/1/1/gpx.xsd" version="1.1" creator="VisuGPX - https://www.visugpx.com">
  <metadata>
    <name>Départ col du Redondet (petite rando)</name>
    <desc><![CDATA[File with points/tracks from Locus Map/4.12.0]]></desc>
  </metadata>
  <trk>
    <name><![CDATA[2022-10-22 10:58]]></name>
    <trkseg>
      <trkpt lat="45.10418" lon="2.66214">
        <ele>1535.17</ele>
        <time>2022-10-22T08:58:13.000Z</time>
      </trkpt>
      <trkpt lat="45.10417" lon="2.66215">
        <ele>1529.92</ele>
        <time>2022-10-22T08:58:23.000Z</time>
      </trkpt>
      <trkpt lat="45.10416" lon="2.66215">
        <ele>1529.85</ele>
        <time>2022-10-22T08:58:49.000Z</time>
      </trkpt>
      <trkpt lat="45.10417" lon="2.66215">
        <ele>1530.15</ele>
        <time>2022-10-22T08:59:50.000Z</time>
      </trkpt>
      <trkpt lat="45.10417" lon="2.66217">
        <ele>1532.65</ele>
        <time>2022-10-22T09:00:00.000Z</time>
      </trkpt>
      <trkpt lat="45.10419" lon="2.66215">
        <ele>1531.92</ele>
        <time>2022-10-22T09:00:10.000Z</time>
      </trkpt>
      <trkpt lat="45.10418" lon="2.66213">
        <ele>1530.92</ele>
        <time>2022-10-22T09:00:20.000Z</time>
      </trkpt>
      <trkpt lat="45.10417" lon="2.66215">
        <ele>1529.68</ele>
        <time>2022-10-22T09:00:34.000Z</time>
      </trkpt>
      <trkpt lat="45.10416" lon="2.66212">
        <ele>1529.92</ele>
        <time>2022-10-22T09:00:44.000Z</time>
      </trkpt>
      <trkpt lat="45.10417" lon="2.66211">
        <ele>1529.92</ele>
        <time>2022-10-22T09:00:59.000Z</time>
      </trkpt>
      <trkpt lat="45.10416" lon="2.6621">
        <ele>1528.17</ele>
        <time>2022-10-22T09:01:12.000Z</time>
      </trkpt>
      <trkpt lat="45.10417" lon="2.66211">
        <ele>1527.92</ele>
        <time>2022-10-22T09:01:32.000Z</time>
      </trkpt>
      <trkpt lat="45.10418" lon="2.6621">
        <ele>1526.92</ele>
        <time>2022-10-22T09:01:50.000Z</time>
      </trkpt>
      <trkpt lat="45.10417" lon="2.66218">
        <ele>1527.86</ele>
        <time>2022-10-22T09:02:00.000Z</time>
      </trkpt>
      <trkpt lat="45.10417" lon="2.66215">
        <ele>1528.9</ele>
        <time>2022-10-22T09:02:12.000Z</time>
      </trkpt>
      <trkpt lat="45.10416" lon="2.66212">
        <ele>1529.92</ele>
        <time>2022-10-22T09:02:22.000Z</time>
      </trkpt>
      <trkpt lat="45.10417" lon="2.66214">
        <ele>1528.92</ele>
        <time>2022-10-22T09:02:32.000Z</time>
      </trkpt>
      <trkpt lat="45.10416" lon="2.66213">
        <ele>1528.92</ele>
        <time>2022-10-22T09:03:04.000Z</time>
      </trkpt>
      <trkpt lat="45.10416" lon="2.66212">
        <ele>1528.92</ele>
        <time>2022-10-22T09:03:23.000Z</time>
      </trkpt>
      <trkpt lat="45.10418" lon="2.66211">
        <ele>1529.1</ele>
        <time>2022-10-22T09:03:33.000Z</time>
      </trkpt>
      <trkpt lat="45.10418" lon="2.66208">
        <ele>1530.85</ele>
        <time>2022-10-22T09:03:43.000Z</time>
      </trkpt>
      <trkpt lat="45.10423" lon="2.66204">
        <ele>1532.68</ele>
        <time>2022-10-22T09:03:53.000Z</time>
      </trkpt>
      <trkpt lat="45.10425" lon="2.6621">
        <ele>1532.93</ele>
        <time>2022-10-22T09:04:03.000Z</time>
      </trkpt>
      <trkpt lat="45.10436" lon="2.66208">
        <ele>1533.91</ele>
        <time>2022-10-22T09:04:13.000Z</time>
      </trkpt>
      <trkpt lat="45.10441" lon="2.66198">
        <ele>1534.92</ele>
        <time>2022-10-22T09:04:23.000Z</time>
      </trkpt>
      <trkpt lat="45.10438" lon="2.66184">
        <ele>1535.92</ele>
        <time>2022-10-22T09:04:34.000Z</time>
      </trkpt>
      <trkpt lat="45.10437" lon="2.66177">
        <ele>1535.92</ele>
        <time>2022-10-22T09:04:44.000Z</time>
      </trkpt>
      <trkpt lat="45.10437" lon="2.66175">
        <ele>1535.92</ele>
        <time>2022-10-22T09:04:57.000Z</time>
      </trkpt>
      <trkpt lat="45.10438" lon="2.66158">
        <ele>1537.15</ele>
        <time>2022-10-22T09:05:08.000Z</time>
      </trkpt>
      <trkpt lat="45.10441" lon="2.66145">
        <ele>1537.92</ele>
        <time>2022-10-22T09:05:18.000Z</time>
      </trkpt>
      <trkpt lat="45.10441" lon="2.66133">
        <ele>1539.92</ele>
        <time>2022-10-22T09:05:27.545Z</time>
      </trkpt>
      <trkpt lat="45.10436" lon="2.66124">
        <ele>1539.92</ele>
        <time>2022-10-22T09:05:38.000Z</time>
      </trkpt>
      <trkpt lat="45.10431" lon="2.66116">
        <ele>1541.92</ele>
        <time>2022-10-22T09:05:49.000Z</time>
      </trkpt>
      <trkpt lat="45.10426" lon="2.66105">
        <ele>1542.91</ele>
        <time>2022-10-22T09:05:58.982Z</time>
      </trkpt>
      <trkpt lat="45.10425" lon="2.66095">
        <ele>1544.92</ele>
        <time>2022-10-22T09:06:09.000Z</time>
      </trkpt>
      <trkpt lat="45.10427" lon="2.66084">
        <ele>1545.92</ele>
        <time>2022-10-22T09:06:20.000Z</time>
      </trkpt>
      <trkpt lat="45.10426" lon="2.66075">
        <ele>1547.67</ele>
        <time>2022-10-22T09:06:31.000Z</time>
      </trkpt>
      <trkpt lat="45.10422" lon="2.66066">
        <ele>1547.92</ele>
        <time>2022-10-22T09:06:40.969Z</time>
      </trkpt>
      <trkpt lat="45.1042" lon="2.6606">
        <ele>1548.92</ele>
        <time>2022-10-22T09:06:50.000Z</time>
      </trkpt>
      <trkpt lat="45.10417" lon="2.66049">
        <ele>1550.92</ele>
        <time>2022-10-22T09:06:59.503Z</time>
      </trkpt>
      <trkpt lat="45.10415" lon="2.6604">
        <ele>1551.92</ele>
        <time>2022-10-22T09:07:11.000Z</time>
      </trkpt>
      <trkpt lat="45.10415" lon="2.6603">
        <ele>1553.92</ele>
        <time>2022-10-22T09:07:21.000Z</time>
      </trkpt>
      <trkpt lat="45.10416" lon="2.66021">
        <ele>1554.92</ele>
        <time>2022-10-22T09:07:32.000Z</time>
      </trkpt>
      <trkpt lat="45.10414" lon="2.66011">
        <ele>1556.67</ele>
        <time>2022-10-22T09:07:41.366Z</time>
      </trkpt>
      <trkpt lat="45.10413" lon="2.66005">
        <ele>1557.92</ele>
        <time>2022-10-22T09:07:51.396Z</time>
      </trkpt>
      <trkpt lat="45.10412" lon="2.66002">
        <ele>1557.87</ele>
        <time>2022-10-22T09:08:03.000Z</time>
      </trkpt>
      <trkpt lat="45.10408" lon="2.65992">
        <ele>1559.67</ele>
        <time>2022-10-22T09:08:13.000Z</time>
      </trkpt>
      <trkpt lat="45.10402" lon="2.65982">
        <ele>1558.92</ele>
        <time>2022-10-22T09:08:22.513Z</time>
      </trkpt>
      <trkpt lat="45.10399" lon="2.65974">
        <ele>1557.92</ele>
        <time>2022-10-22T09:08:32.000Z</time>
      </trkpt>
      <trkpt lat="45.10398" lon="2.65965">
        <ele>1558.92</ele>
        <time>2022-10-22T09:08:43.000Z</time>
      </trkpt>
      <trkpt lat="45.10395" lon="2.65957">
        <ele>1559.92</ele>
        <time>2022-10-22T09:08:53.000Z</time>
      </trkpt>
      <trkpt lat="45.10393" lon="2.65946">
        <ele>1559.92</ele>
        <time>2022-10-22T09:09:02.661Z</time>
      </trkpt>
      <trkpt lat="45.10393" lon="2.6594">
        <ele>1560.92</ele>
        <time>2022-10-22T09:09:12.000Z</time>
      </trkpt>
      <trkpt lat="45.10392" lon="2.65937">
        <ele>1562.86</ele>
        <time>2022-10-22T09:09:23.000Z</time>
      </trkpt>
      <trkpt lat="45.10388" lon="2.65928">
        <ele>1563.92</ele>
        <time>2022-10-22T09:09:33.000Z</time>
      </trkpt>
      <trkpt lat="45.10383" lon="2.65921">
        <ele>1563.92</ele>
        <time>2022-10-22T09:09:43.000Z</time>
      </trkpt>
      <trkpt lat="45.10384" lon="2.65912">
        <ele>1567.86</ele>
        <time>2022-10-22T09:09:54.000Z</time>
      </trkpt>
      <trkpt lat="45.10383" lon="2.659">
        <ele>1567.98</ele>
        <time>2022-10-22T09:10:04.000Z</time>
      </trkpt>
      <trkpt lat="45.10378" lon="2.65889">
        <ele>1567.92</ele>
        <time>2022-10-22T09:10:15.000Z</time>
      </trkpt>
      <trkpt lat="45.10367" lon="2.65887">
        <ele>1568.92</ele>
        <time>2022-10-22T09:10:24.402Z</time>
      </trkpt>
      <trkpt lat="45.10362" lon="2.65882">
        <ele>1569.92</ele>
        <time>2022-10-22T09:10:34.000Z</time>
      </trkpt>
      <trkpt lat="45.10357" lon="2.65874">
        <ele>1570.92</ele>
        <time>2022-10-22T09:10:44.000Z</time>
      </trkpt>
      <trkpt lat="45.10355" lon="2.65866">
        <ele>1571.92</ele>
        <time>2022-10-22T09:10:54.000Z</time>
      </trkpt>
      <trkpt lat="45.10351" lon="2.65865">
        <ele>1573.67</ele>
        <time>2022-10-22T09:11:04.004Z</time>
      </trkpt>
      <trkpt lat="45.10348" lon="2.65864">
        <ele>1574.67</ele>
        <time>2022-10-22T09:11:14.000Z</time>
      </trkpt>
      <trkpt lat="45.10341" lon="2.6586">
        <ele>1576.67</ele>
        <time>2022-10-22T09:11:25.000Z</time>
      </trkpt>
      <trkpt lat="45.10341" lon="2.65845">
        <ele>1578.92</ele>
        <time>2022-10-22T09:11:36.000Z</time>
      </trkpt>
      <trkpt lat="45.10341" lon="2.6584">
        <ele>1580.91</ele>
        <time>2022-10-22T09:11:46.000Z</time>
      </trkpt>
      <trkpt lat="45.10339" lon="2.65835">
        <ele>1581.92</ele>
        <time>2022-10-22T09:11:57.000Z</time>
      </trkpt>
      <trkpt lat="45.10342" lon="2.65822">
        <ele>1581.92</ele>
        <time>2022-10-22T09:12:09.000Z</time>
      </trkpt>
      <trkpt lat="45.1034" lon="2.65812">
        <ele>1580.92</ele>
        <time>2022-10-22T09:12:18.473Z</time>
      </trkpt>
      <trkpt lat="45.1034" lon="2.65807">
        <ele>1580.92</ele>
        <time>2022-10-22T09:12:28.000Z</time>
      </trkpt>
      <trkpt lat="45.1034" lon="2.65805">
        <ele>1579.99</ele>
        <time>2022-10-22T09:12:39.342Z</time>
      </trkpt>
      <trkpt lat="45.10339" lon="2.65807">
        <ele>1578.93</ele>
        <time>2022-10-22T09:12:54.000Z</time>
      </trkpt>
      <trkpt lat="45.10339" lon="2.6581">
        <ele>1579.92</ele>
        <time>2022-10-22T09:13:05.000Z</time>
      </trkpt>
      <trkpt lat="45.1034" lon="2.65809">
        <ele>1580.92</ele>
        <time>2022-10-22T09:14:02.000Z</time>
      </trkpt>
      <trkpt lat="45.10339" lon="2.65796">
        <ele>1579.92</ele>
        <time>2022-10-22T09:14:11.625Z</time>
      </trkpt>
      <trkpt lat="45.10339" lon="2.65793">
        <ele>1577.92</ele>
        <time>2022-10-22T09:14:22.000Z</time>
      </trkpt>
      <trkpt lat="45.10341" lon="2.65782">
        <ele>1577.97</ele>
        <time>2022-10-22T09:14:33.000Z</time>
      </trkpt>
      <trkpt lat="45.10338" lon="2.65775">
        <ele>1577.18</ele>
        <time>2022-10-22T09:14:44.000Z</time>
      </trkpt>
      <trkpt lat="45.10335" lon="2.65764">
        <ele>1576.92</ele>
        <time>2022-10-22T09:14:55.000Z</time>
      </trkpt>
      <trkpt lat="45.10331" lon="2.65754">
        <ele>1578.92</ele>
        <time>2022-10-22T09:15:04.535Z</time>
      </trkpt>
      <trkpt lat="45.10329" lon="2.65742">
        <ele>1578.94</ele>
        <time>2022-10-22T09:15:14.065Z</time>
      </trkpt>
      <trkpt lat="45.10327" lon="2.65731">
        <ele>1579.72</ele>
        <time>2022-10-22T09:15:24.000Z</time>
      </trkpt>
      <trkpt lat="45.10326" lon="2.65731">
        <ele>1578.18</ele>
        <time>2022-10-22T09:15:36.000Z</time>
      </trkpt>
      <trkpt lat="45.10321" lon="2.65721">
        <ele>1577.17</ele>
        <time>2022-10-22T09:15:46.000Z</time>
      </trkpt>
      <trkpt lat="45.10318" lon="2.65708">
        <ele>1575.94</ele>
        <time>2022-10-22T09:15:55.504Z</time>
      </trkpt>
      <trkpt lat="45.10312" lon="2.65698">
        <ele>1575.17</ele>
        <time>2022-10-22T09:16:04.551Z</time>
      </trkpt>
      <trkpt lat="45.10308" lon="2.65681">
        <ele>1574.92</ele>
        <time>2022-10-22T09:16:13.852Z</time>
      </trkpt>
      <trkpt lat="45.10307" lon="2.65674">
        <ele>1575.17</ele>
        <time>2022-10-22T09:16:23.000Z</time>
      </trkpt>
      <trkpt lat="45.10304" lon="2.65657">
        <ele>1576.86</ele>
        <time>2022-10-22T09:16:33.073Z</time>
      </trkpt>
      <trkpt lat="45.10303" lon="2.65654">
        <ele>1576.93</ele>
        <time>2022-10-22T09:16:50.731Z</time>
      </trkpt>
      <trkpt lat="45.103" lon="2.65643">
        <ele>1576.93</ele>
        <time>2022-10-22T09:17:02.000Z</time>
      </trkpt>
      <trkpt lat="45.10296" lon="2.65631">
        <ele>1579.86</ele>
        <time>2022-10-22T09:17:11.253Z</time>
      </trkpt>
      <trkpt lat="45.10293" lon="2.65621">
        <ele>1581.86</ele>
        <time>2022-10-22T09:17:23.000Z</time>
      </trkpt>
      <trkpt lat="45.10286" lon="2.65606">
        <ele>1581.91</ele>
        <time>2022-10-22T09:17:33.000Z</time>
      </trkpt>
      <trkpt lat="45.10287" lon="2.65596">
        <ele>1584.68</ele>
        <time>2022-10-22T09:17:43.000Z</time>
      </trkpt>
      <trkpt lat="45.10285" lon="2.65589">
        <ele>1585.92</ele>
        <time>2022-10-22T09:17:53.000Z</time>
      </trkpt>
      <trkpt lat="45.1028" lon="2.65578">
        <ele>1586.93</ele>
        <time>2022-10-22T09:18:04.000Z</time>
      </trkpt>
      <trkpt lat="45.10276" lon="2.65569">
        <ele>1587.86</ele>
        <time>2022-10-22T09:18:15.000Z</time>
      </trkpt>
      <trkpt lat="45.10274" lon="2.65561">
        <ele>1588.93</ele>
        <time>2022-10-22T09:18:24.924Z</time>
      </trkpt>
      <trkpt lat="45.10275" lon="2.65557">
        <ele>1589.11</ele>
        <time>2022-10-22T09:18:34.000Z</time>
      </trkpt>
      <trkpt lat="45.10272" lon="2.6555">
        <ele>1590.11</ele>
        <time>2022-10-22T09:18:44.000Z</time>
      </trkpt>
      <trkpt lat="45.10268" lon="2.65542">
        <ele>1592.68</ele>
        <time>2022-10-22T09:18:55.000Z</time>
      </trkpt>
      <trkpt lat="45.10268" lon="2.65536">
        <ele>1595.93</ele>
        <time>2022-10-22T09:19:05.000Z</time>
      </trkpt>
      <trkpt lat="45.10265" lon="2.65526">
        <ele>1596.91</ele>
        <time>2022-10-22T09:19:16.000Z</time>
      </trkpt>
      <trkpt lat="45.10264" lon="2.65519">
        <ele>1597.93</ele>
        <time>2022-10-22T09:19:25.482Z</time>
      </trkpt>
      <trkpt lat="45.10265" lon="2.65514">
        <ele>1598.93</ele>
        <time>2022-10-22T09:19:35.000Z</time>
      </trkpt>
      <trkpt lat="45.10264" lon="2.65505">
        <ele>1601.91</ele>
        <time>2022-10-22T09:19:45.000Z</time>
      </trkpt>
      <trkpt lat="45.10262" lon="2.65498">
        <ele>1603.68</ele>
        <time>2022-10-22T09:19:55.000Z</time>
      </trkpt>
      <trkpt lat="45.10261" lon="2.65494">
        <ele>1604.91</ele>
        <time>2022-10-22T09:20:05.000Z</time>
      </trkpt>
      <trkpt lat="45.1026" lon="2.65487">
        <ele>1605.93</ele>
        <time>2022-10-22T09:20:15.000Z</time>
      </trkpt>
      <trkpt lat="45.10258" lon="2.6548">
        <ele>1606.91</ele>
        <time>2022-10-22T09:20:27.000Z</time>
      </trkpt>
      <trkpt lat="45.10257" lon="2.65474">
        <ele>1608.68</ele>
        <time>2022-10-22T09:20:37.000Z</time>
      </trkpt>
      <trkpt lat="45.10254" lon="2.65472">
        <ele>1609.67</ele>
        <time>2022-10-22T09:20:47.000Z</time>
      </trkpt>
      <trkpt lat="45.10252" lon="2.65465">
        <ele>1610.87</ele>
        <time>2022-10-22T09:20:56.442Z</time>
      </trkpt>
      <trkpt lat="45.10254" lon="2.65462">
        <ele>1611.99</ele>
        <time>2022-10-22T09:21:05.564Z</time>
      </trkpt>
      <trkpt lat="45.10254" lon="2.65458">
        <ele>1611.93</ele>
        <time>2022-10-22T09:21:17.000Z</time>
      </trkpt>
      <trkpt lat="45.10258" lon="2.65455">
        <ele>1615.66</ele>
        <time>2022-10-22T09:21:27.000Z</time>
      </trkpt>
      <trkpt lat="45.10258" lon="2.65446">
        <ele>1618.87</ele>
        <time>2022-10-22T09:21:36.400Z</time>
      </trkpt>
      <trkpt lat="45.10255" lon="2.65443">
        <ele>1618.93</ele>
        <time>2022-10-22T09:21:46.000Z</time>
      </trkpt>
      <trkpt lat="45.10255" lon="2.65444">
        <ele>1618.87</ele>
        <time>2022-10-22T09:21:57.000Z</time>
      </trkpt>
      <trkpt lat="45.10255" lon="2.65445">
        <ele>1618.93</ele>
        <time>2022-10-22T09:22:07.000Z</time>
      </trkpt>
      <trkpt lat="45.10255" lon="2.65444">
        <ele>1618.93</ele>
        <time>2022-10-22T09:23:08.000Z</time>
      </trkpt>
      <trkpt lat="45.10255" lon="2.65442">
        <ele>1618.94</ele>
        <time>2022-10-22T09:23:18.000Z</time>
      </trkpt>
      <trkpt lat="45.10248" lon="2.65443">
        <ele>1619.74</ele>
        <time>2022-10-22T09:23:29.000Z</time>
      </trkpt>
      <trkpt lat="45.10242" lon="2.65441">
        <ele>1620.93</ele>
        <time>2022-10-22T09:23:40.000Z</time>
      </trkpt>
      <trkpt lat="45.10239" lon="2.65443">
        <ele>1622.87</ele>
        <time>2022-10-22T09:23:50.000Z</time>
      </trkpt>
      <trkpt lat="45.1023" lon="2.65439">
        <ele>1624.93</ele>
        <time>2022-10-22T09:23:59.802Z</time>
      </trkpt>
      <trkpt lat="45.10227" lon="2.65437">
        <ele>1626.91</ele>
        <time>2022-10-22T09:24:09.000Z</time>
      </trkpt>
      <trkpt lat="45.10229" lon="2.65428">
        <ele>1628.93</ele>
        <time>2022-10-22T09:24:20.000Z</time>
      </trkpt>
      <trkpt lat="45.10232" lon="2.65424">
        <ele>1630.93</ele>
        <time>2022-10-22T09:24:30.000Z</time>
      </trkpt>
      <trkpt lat="45.10233" lon="2.6542">
        <ele>1632.91</ele>
        <time>2022-10-22T09:24:40.000Z</time>
      </trkpt>
      <trkpt lat="45.10236" lon="2.65418">
        <ele>1632.93</ele>
        <time>2022-10-22T09:24:50.000Z</time>
      </trkpt>
      <trkpt lat="45.10237" lon="2.65413">
        <ele>1634.87</ele>
        <time>2022-10-22T09:25:02.000Z</time>
      </trkpt>
      <trkpt lat="45.10238" lon="2.65407">
        <ele>1635.93</ele>
        <time>2022-10-22T09:25:13.000Z</time>
      </trkpt>
      <trkpt lat="45.1024" lon="2.65401">
        <ele>1636.93</ele>
        <time>2022-10-22T09:25:22.382Z</time>
      </trkpt>
      <trkpt lat="45.10244" lon="2.65397">
        <ele>1636.93</ele>
        <time>2022-10-22T09:25:32.000Z</time>
      </trkpt>
      <trkpt lat="45.10247" lon="2.65393">
        <ele>1638.93</ele>
        <time>2022-10-22T09:25:42.000Z</time>
      </trkpt>
      <trkpt lat="45.10244" lon="2.65388">
        <ele>1638.93</ele>
        <time>2022-10-22T09:25:52.000Z</time>
      </trkpt>
      <trkpt lat="45.10243" lon="2.65387">
        <ele>1638.93</ele>
        <time>2022-10-22T09:26:01.444Z</time>
      </trkpt>
      <trkpt lat="45.10235" lon="2.65381">
        <ele>1640.87</ele>
        <time>2022-10-22T09:26:11.015Z</time>
      </trkpt>
      <trkpt lat="45.10231" lon="2.65381">
        <ele>1640.93</ele>
        <time>2022-10-22T09:26:21.000Z</time>
      </trkpt>
      <trkpt lat="45.10235" lon="2.65384">
        <ele>1639.93</ele>
        <time>2022-10-22T09:26:31.000Z</time>
      </trkpt>
      <trkpt lat="45.10241" lon="2.65387">
        <ele>1640.93</ele>
        <time>2022-10-22T09:26:41.000Z</time>
      </trkpt>
      <trkpt lat="45.10242" lon="2.65388">
        <ele>1640.93</ele>
        <time>2022-10-22T09:26:50.682Z</time>
      </trkpt>
      <trkpt lat="45.10246" lon="2.65388">
        <ele>1639.93</ele>
        <time>2022-10-22T09:27:00.000Z</time>
      </trkpt>
      <trkpt lat="45.10247" lon="2.65385">
        <ele>1639.18</ele>
        <time>2022-10-22T09:27:11.685Z</time>
      </trkpt>
      <trkpt lat="45.10256" lon="2.65379">
        <ele>1638.93</ele>
        <time>2022-10-22T09:27:23.000Z</time>
      </trkpt>
      <trkpt lat="45.10263" lon="2.65376">
        <ele>1637.98</ele>
        <time>2022-10-22T09:27:33.000Z</time>
      </trkpt>
      <trkpt lat="45.10257" lon="2.65373">
        <ele>1638.18</ele>
        <time>2022-10-22T09:27:42.622Z</time>
      </trkpt>
      <trkpt lat="45.10249" lon="2.65377">
        <ele>1638.68</ele>
        <time>2022-10-22T09:27:53.000Z</time>
      </trkpt>
      <trkpt lat="45.1025" lon="2.6538">
        <ele>1638.93</ele>
        <time>2022-10-22T09:28:02.545Z</time>
      </trkpt>
      <trkpt lat="45.10258" lon="2.65377">
        <ele>1638.93</ele>
        <time>2022-10-22T09:28:13.000Z</time>
      </trkpt>
      <trkpt lat="45.10258" lon="2.65379">
        <ele>1638.93</ele>
        <time>2022-10-22T09:28:23.000Z</time>
      </trkpt>
      <trkpt lat="45.10261" lon="2.65378">
        <ele>1638.93</ele>
        <time>2022-10-22T09:29:20.967Z</time>
      </trkpt>
      <trkpt lat="45.10266" lon="2.65375">
        <ele>1637.93</ele>
        <time>2022-10-22T09:29:30.000Z</time>
      </trkpt>
      <trkpt lat="45.10273" lon="2.65367">
        <ele>1636.93</ele>
        <time>2022-10-22T09:29:41.000Z</time>
      </trkpt>
      <trkpt lat="45.10279" lon="2.65362">
        <ele>1634.99</ele>
        <time>2022-10-22T09:29:51.000Z</time>
      </trkpt>
      <trkpt lat="45.10286" lon="2.65359">
        <ele>1634.93</ele>
        <time>2022-10-22T09:30:01.000Z</time>
      </trkpt>
      <trkpt lat="45.10292" lon="2.65358">
        <ele>1632.99</ele>
        <time>2022-10-22T09:30:10.803Z</time>
      </trkpt>
      <trkpt lat="45.10298" lon="2.65355">
        <ele>1630.93</ele>
        <time>2022-10-22T09:30:19.991Z</time>
      </trkpt>
      <trkpt lat="45.10304" lon="2.65348">
        <ele>1630.18</ele>
        <time>2022-10-22T09:30:30.000Z</time>
      </trkpt>
      <trkpt lat="45.10315" lon="2.65342">
        <ele>1629.18</ele>
        <time>2022-10-22T09:30:39.677Z</time>
      </trkpt>
      <trkpt lat="45.10325" lon="2.65335">
        <ele>1628.93</ele>
        <time>2022-10-22T09:30:51.000Z</time>
      </trkpt>
      <trkpt lat="45.10325" lon="2.65337">
        <ele>1628.68</ele>
        <time>2022-10-22T09:31:01.000Z</time>
      </trkpt>
      <trkpt lat="45.10334" lon="2.65328">
        <ele>1627.93</ele>
        <time>2022-10-22T09:31:12.000Z</time>
      </trkpt>
      <trkpt lat="45.10344" lon="2.6532">
        <ele>1625.93</ele>
        <time>2022-10-22T09:31:21.461Z</time>
      </trkpt>
      <trkpt lat="45.10354" lon="2.65315">
        <ele>1624.93</ele>
        <time>2022-10-22T09:31:30.745Z</time>
      </trkpt>
      <trkpt lat="45.10361" lon="2.65308">
        <ele>1623.18</ele>
        <time>2022-10-22T09:31:39.924Z</time>
      </trkpt>
      <trkpt lat="45.10365" lon="2.653">
        <ele>1621.93</ele>
        <time>2022-10-22T09:31:50.000Z</time>
      </trkpt>
      <trkpt lat="45.10372" lon="2.65292">
        <ele>1620.93</ele>
        <time>2022-10-22T09:32:00.000Z</time>
      </trkpt>
      <trkpt lat="45.10379" lon="2.6529">
        <ele>1619.95</ele>
        <time>2022-10-22T09:32:11.000Z</time>
      </trkpt>
      <trkpt lat="45.1038" lon="2.65289">
        <ele>1619.87</ele>
        <time>2022-10-22T09:32:21.000Z</time>
      </trkpt>
      <trkpt lat="45.10379" lon="2.65288">
        <ele>1619.93</ele>
        <time>2022-10-22T09:34:58.000Z</time>
      </trkpt>
      <trkpt lat="45.10379" lon="2.65287">
        <ele>1619.18</ele>
        <time>2022-10-22T09:35:08.721Z</time>
      </trkpt>
      <trkpt lat="45.10389" lon="2.6528">
        <ele>1616.94</ele>
        <time>2022-10-22T09:35:18.670Z</time>
      </trkpt>
      <trkpt lat="45.10394" lon="2.65276">
        <ele>1614.99</ele>
        <time>2022-10-22T09:35:28.312Z</time>
      </trkpt>
      <trkpt lat="45.10399" lon="2.65271">
        <ele>1613.93</ele>
        <time>2022-10-22T09:35:39.000Z</time>
      </trkpt>
      <trkpt lat="45.10399" lon="2.65272">
        <ele>1611.95</ele>
        <time>2022-10-22T09:35:51.000Z</time>
      </trkpt>
      <trkpt lat="45.10399" lon="2.65273">
        <ele>1612.93</ele>
        <time>2022-10-22T09:36:04.000Z</time>
      </trkpt>
      <trkpt lat="45.104" lon="2.65273">
        <ele>1611.95</ele>
        <time>2022-10-22T09:36:17.662Z</time>
      </trkpt>
      <trkpt lat="45.10407" lon="2.65266">
        <ele>1611.93</ele>
        <time>2022-10-22T09:36:28.000Z</time>
      </trkpt>
      <trkpt lat="45.10416" lon="2.65258">
        <ele>1608.95</ele>
        <time>2022-10-22T09:36:37.602Z</time>
      </trkpt>
      <trkpt lat="45.10423" lon="2.65248">
        <ele>1607.93</ele>
        <time>2022-10-22T09:36:49.000Z</time>
      </trkpt>
      <trkpt lat="45.10428" lon="2.65236">
        <ele>1606.74</ele>
        <time>2022-10-22T09:36:59.000Z</time>
      </trkpt>
      <trkpt lat="45.10437" lon="2.65222">
        <ele>1604.93</ele>
        <time>2022-10-22T09:37:08.523Z</time>
      </trkpt>
      <trkpt lat="45.10442" lon="2.65208">
        <ele>1603.93</ele>
        <time>2022-10-22T09:37:17.752Z</time>
      </trkpt>
      <trkpt lat="45.10446" lon="2.65197">
        <ele>1601.99</ele>
        <time>2022-10-22T09:37:28.000Z</time>
      </trkpt>
      <trkpt lat="45.10454" lon="2.65184">
        <ele>1600.94</ele>
        <time>2022-10-22T09:37:37.742Z</time>
      </trkpt>
      <trkpt lat="45.10461" lon="2.65171">
        <ele>1599.93</ele>
        <time>2022-10-22T09:37:49.000Z</time>
      </trkpt>
      <trkpt lat="45.10468" lon="2.65159">
        <ele>1599.93</ele>
        <time>2022-10-22T09:37:59.000Z</time>
      </trkpt>
      <trkpt lat="45.10475" lon="2.65149">
        <ele>1599.93</ele>
        <time>2022-10-22T09:38:08.060Z</time>
      </trkpt>
      <trkpt lat="45.1048" lon="2.65141">
        <ele>1599.18</ele>
        <time>2022-10-22T09:38:19.000Z</time>
      </trkpt>
      <trkpt lat="45.1049" lon="2.65132">
        <ele>1599.93</ele>
        <time>2022-10-22T09:38:28.323Z</time>
      </trkpt>
      <trkpt lat="45.10495" lon="2.65128">
        <ele>1600.93</ele>
        <time>2022-10-22T09:38:39.000Z</time>
      </trkpt>
      <trkpt lat="45.10501" lon="2.6512">
        <ele>1601.92</ele>
        <time>2022-10-22T09:38:50.000Z</time>
      </trkpt>
      <trkpt lat="45.10507" lon="2.65115">
        <ele>1603.68</ele>
        <time>2022-10-22T09:38:59.524Z</time>
      </trkpt>
      <trkpt lat="45.10514" lon="2.65106">
        <ele>1603.93</ele>
        <time>2022-10-22T09:39:09.201Z</time>
      </trkpt>
      <trkpt lat="45.10517" lon="2.65096">
        <ele>1604.93</ele>
        <time>2022-10-22T09:39:18.452Z</time>
      </trkpt>
      <trkpt lat="45.1052" lon="2.65089">
        <ele>1604.93</ele>
        <time>2022-10-22T09:39:28.000Z</time>
      </trkpt>
      <trkpt lat="45.10524" lon="2.6508">
        <ele>1604.93</ele>
        <time>2022-10-22T09:39:37.554Z</time>
      </trkpt>
      <trkpt lat="45.1053" lon="2.65076">
        <ele>1605.93</ele>
        <time>2022-10-22T09:39:48.000Z</time>
      </trkpt>
      <trkpt lat="45.10539" lon="2.65069">
        <ele>1604.95</ele>
        <time>2022-10-22T09:39:57.644Z</time>
      </trkpt>
      <trkpt lat="45.10546" lon="2.65067">
        <ele>1602.95</ele>
        <time>2022-10-22T09:40:07.633Z</time>
      </trkpt>
      <trkpt lat="45.10553" lon="2.65063">
        <ele>1602.93</ele>
        <time>2022-10-22T09:40:17.050Z</time>
      </trkpt>
      <trkpt lat="45.10562" lon="2.65056">
        <ele>1601.18</ele>
        <time>2022-10-22T09:40:26.422Z</time>
      </trkpt>
      <trkpt lat="45.1057" lon="2.65048">
        <ele>1599.94</ele>
        <time>2022-10-22T09:40:35.843Z</time>
      </trkpt>
      <trkpt lat="45.10577" lon="2.65041">
        <ele>1599.18</ele>
        <time>2022-10-22T09:40:45.000Z</time>
      </trkpt>
      <trkpt lat="45.10587" lon="2.65031">
        <ele>1598.95</ele>
        <time>2022-10-22T09:40:54.505Z</time>
      </trkpt>
      <trkpt lat="45.10591" lon="2.65028">
        <ele>1599.93</ele>
        <time>2022-10-22T09:41:04.000Z</time>
      </trkpt>
      <trkpt lat="45.10596" lon="2.65017">
        <ele>1599.18</ele>
        <time>2022-10-22T09:41:13.604Z</time>
      </trkpt>
      <trkpt lat="45.10602" lon="2.65006">
        <ele>1598.93</ele>
        <time>2022-10-22T09:41:23.000Z</time>
      </trkpt>
      <trkpt lat="45.10611" lon="2.64996">
        <ele>1598.94</ele>
        <time>2022-10-22T09:41:34.000Z</time>
      </trkpt>
      <trkpt lat="45.10618" lon="2.64983">
        <ele>1597</ele>
        <time>2022-10-22T09:41:43.016Z</time>
      </trkpt>
      <trkpt lat="45.10624" lon="2.64971">
        <ele>1596.93</ele>
        <time>2022-10-22T09:41:52.778Z</time>
      </trkpt>
      <trkpt lat="45.10627" lon="2.64959">
        <ele>1593.95</ele>
        <time>2022-10-22T09:42:02.385Z</time>
      </trkpt>
      <trkpt lat="45.10633" lon="2.64949">
        <ele>1592.94</ele>
        <time>2022-10-22T09:42:11.981Z</time>
      </trkpt>
      <trkpt lat="45.10636" lon="2.64941">
        <ele>1591.94</ele>
        <time>2022-10-22T09:42:21.000Z</time>
      </trkpt>
      <trkpt lat="45.10638" lon="2.64932">
        <ele>1590</ele>
        <time>2022-10-22T09:42:31.000Z</time>
      </trkpt>
      <trkpt lat="45.10644" lon="2.64922">
        <ele>1588.94</ele>
        <time>2022-10-22T09:42:40.882Z</time>
      </trkpt>
      <trkpt lat="45.10647" lon="2.64914">
        <ele>1586.94</ele>
        <time>2022-10-22T09:42:51.000Z</time>
      </trkpt>
      <trkpt lat="45.10652" lon="2.64904">
        <ele>1584.94</ele>
        <time>2022-10-22T09:43:01.000Z</time>
      </trkpt>
      <trkpt lat="45.10658" lon="2.64892">
        <ele>1582.94</ele>
        <time>2022-10-22T09:43:11.000Z</time>
      </trkpt>
      <trkpt lat="45.10662" lon="2.64878">
        <ele>1580.94</ele>
        <time>2022-10-22T09:43:22.000Z</time>
      </trkpt>
      <trkpt lat="45.10666" lon="2.64867">
        <ele>1579.94</ele>
        <time>2022-10-22T09:43:32.000Z</time>
      </trkpt>
      <trkpt lat="45.10672" lon="2.64857">
        <ele>1577.94</ele>
        <time>2022-10-22T09:43:41.072Z</time>
      </trkpt>
      <trkpt lat="45.10676" lon="2.64846">
        <ele>1575.95</ele>
        <time>2022-10-22T09:43:50.964Z</time>
      </trkpt>
      <trkpt lat="45.10678" lon="2.64838">
        <ele>1574.94</ele>
        <time>2022-10-22T09:44:02.000Z</time>
      </trkpt>
      <trkpt lat="45.10683" lon="2.64826">
        <ele>1572.94</ele>
        <time>2022-10-22T09:44:13.000Z</time>
      </trkpt>
      <trkpt lat="45.10687" lon="2.64816">
        <ele>1570.94</ele>
        <time>2022-10-22T09:44:24.000Z</time>
      </trkpt>
      <trkpt lat="45.10691" lon="2.64806">
        <ele>1569</ele>
        <time>2022-10-22T09:44:35.000Z</time>
      </trkpt>
      <trkpt lat="45.10698" lon="2.64794">
        <ele>1566.2</ele>
        <time>2022-10-22T09:44:44.482Z</time>
      </trkpt>
      <trkpt lat="45.10701" lon="2.64784">
        <ele>1564.95</ele>
        <time>2022-10-22T09:44:53.582Z</time>
      </trkpt>
      <trkpt lat="45.10706" lon="2.64774">
        <ele>1563.95</ele>
        <time>2022-10-22T09:45:02.625Z</time>
      </trkpt>
      <trkpt lat="45.10713" lon="2.64765">
        <ele>1561.94</ele>
        <time>2022-10-22T09:45:12.077Z</time>
      </trkpt>
      <trkpt lat="45.10715" lon="2.64765">
        <ele>1561.94</ele>
        <time>2022-10-22T09:45:22.000Z</time>
      </trkpt>
      <trkpt lat="45.10714" lon="2.64766">
        <ele>1561.94</ele>
        <time>2022-10-22T09:45:36.000Z</time>
      </trkpt>
      <trkpt lat="45.10719" lon="2.64754">
        <ele>1560.95</ele>
        <time>2022-10-22T09:45:45.482Z</time>
      </trkpt>
      <trkpt lat="45.10727" lon="2.64742">
        <ele>1559.75</ele>
        <time>2022-10-22T09:45:54.964Z</time>
      </trkpt>
      <trkpt lat="45.10735" lon="2.64731">
        <ele>1558.94</ele>
        <time>2022-10-22T09:46:04.514Z</time>
      </trkpt>
      <trkpt lat="45.10742" lon="2.64722">
        <ele>1557.94</ele>
        <time>2022-10-22T09:46:14.000Z</time>
      </trkpt>
      <trkpt lat="45.10753" lon="2.64709">
        <ele>1557.94</ele>
        <time>2022-10-22T09:46:23.446Z</time>
      </trkpt>
      <trkpt lat="45.10759" lon="2.64698">
        <ele>1557.19</ele>
        <time>2022-10-22T09:46:32.542Z</time>
      </trkpt>
      <trkpt lat="45.10765" lon="2.64686">
        <ele>1555</ele>
        <time>2022-10-22T09:46:42.062Z</time>
      </trkpt>
      <trkpt lat="45.10771" lon="2.64676">
        <ele>1554.94</ele>
        <time>2022-10-22T09:46:51.671Z</time>
      </trkpt>
      <trkpt lat="45.10778" lon="2.64665">
        <ele>1554.19</ele>
        <time>2022-10-22T09:47:03.000Z</time>
      </trkpt>
      <trkpt lat="45.10789" lon="2.64657">
        <ele>1554.88</ele>
        <time>2022-10-22T09:47:13.000Z</time>
      </trkpt>
      <trkpt lat="45.10799" lon="2.6465">
        <ele>1554.94</ele>
        <time>2022-10-22T09:47:22.053Z</time>
      </trkpt>
      <trkpt lat="45.10807" lon="2.64643">
        <ele>1554.94</ele>
        <time>2022-10-22T09:47:31.803Z</time>
      </trkpt>
      <trkpt lat="45.10812" lon="2.64639">
        <ele>1553.94</ele>
        <time>2022-10-22T09:47:41.000Z</time>
      </trkpt>
      <trkpt lat="45.10811" lon="2.64641">
        <ele>1553.94</ele>
        <time>2022-10-22T09:47:51.000Z</time>
      </trkpt>
      <trkpt lat="45.10811" lon="2.64642">
        <ele>1554.94</ele>
        <time>2022-10-22T09:50:11.000Z</time>
      </trkpt>
      <trkpt lat="45.1082" lon="2.64631">
        <ele>1554.94</ele>
        <time>2022-10-22T09:50:21.054Z</time>
      </trkpt>
      <trkpt lat="45.10821" lon="2.64629">
        <ele>1555.93</ele>
        <time>2022-10-22T09:50:31.000Z</time>
      </trkpt>
      <trkpt lat="45.10826" lon="2.64621">
        <ele>1555.94</ele>
        <time>2022-10-22T09:50:40.625Z</time>
      </trkpt>
      <trkpt lat="45.10832" lon="2.64611">
        <ele>1555.94</ele>
        <time>2022-10-22T09:50:52.000Z</time>
      </trkpt>
      <trkpt lat="45.10835" lon="2.64596">
        <ele>1554.94</ele>
        <time>2022-10-22T09:51:03.000Z</time>
      </trkpt>
      <trkpt lat="45.1084" lon="2.6458">
        <ele>1555.94</ele>
        <time>2022-10-22T09:51:12.003Z</time>
      </trkpt>
      <trkpt lat="45.10842" lon="2.6457">
        <ele>1555.94</ele>
        <time>2022-10-22T09:51:22.000Z</time>
      </trkpt>
      <trkpt lat="45.10848" lon="2.64562">
        <ele>1553.96</ele>
        <time>2022-10-22T09:51:32.000Z</time>
      </trkpt>
      <trkpt lat="45.10848" lon="2.64564">
        <ele>1554.94</ele>
        <time>2022-10-22T09:51:42.000Z</time>
      </trkpt>
      <trkpt lat="45.10842" lon="2.64563">
        <ele>1554.88</ele>
        <time>2022-10-22T09:51:51.744Z</time>
      </trkpt>
      <trkpt lat="45.10839" lon="2.64573">
        <ele>1555.92</ele>
        <time>2022-10-22T09:52:02.000Z</time>
      </trkpt>
      <trkpt lat="45.10836" lon="2.64572">
        <ele>1555.94</ele>
        <time>2022-10-22T09:52:13.000Z</time>
      </trkpt>
      <trkpt lat="45.10837" lon="2.64571">
        <ele>1556.17</ele>
        <time>2022-10-22T09:54:24.000Z</time>
      </trkpt>
      <trkpt lat="45.10836" lon="2.64565">
        <ele>1555</ele>
        <time>2022-10-22T09:54:34.000Z</time>
      </trkpt>
      <trkpt lat="45.10832" lon="2.64556">
        <ele>1553.94</ele>
        <time>2022-10-22T09:54:43.031Z</time>
      </trkpt>
      <trkpt lat="45.10831" lon="2.64546">
        <ele>1552.19</ele>
        <time>2022-10-22T09:54:54.000Z</time>
      </trkpt>
      <trkpt lat="45.10832" lon="2.64537">
        <ele>1550.94</ele>
        <time>2022-10-22T09:55:05.000Z</time>
      </trkpt>
      <trkpt lat="45.10834" lon="2.64528">
        <ele>1549</ele>
        <time>2022-10-22T09:55:15.000Z</time>
      </trkpt>
      <trkpt lat="45.10836" lon="2.64521">
        <ele>1548.94</ele>
        <time>2022-10-22T09:55:25.000Z</time>
      </trkpt>
      <trkpt lat="45.1084" lon="2.6451">
        <ele>1547.18</ele>
        <time>2022-10-22T09:55:34.462Z</time>
      </trkpt>
      <trkpt lat="45.10843" lon="2.645">
        <ele>1546.94</ele>
        <time>2022-10-22T09:55:43.884Z</time>
      </trkpt>
      <trkpt lat="45.10847" lon="2.64489">
        <ele>1546.94</ele>
        <time>2022-10-22T09:55:54.000Z</time>
      </trkpt>
      <trkpt lat="45.10853" lon="2.64473">
        <ele>1545.96</ele>
        <time>2022-10-22T09:56:03.422Z</time>
      </trkpt>
      <trkpt lat="45.10856" lon="2.64459">
        <ele>1545.69</ele>
        <time>2022-10-22T09:56:12.571Z</time>
      </trkpt>
      <trkpt lat="45.10859" lon="2.6445">
        <ele>1544.94</ele>
        <time>2022-10-22T09:56:22.000Z</time>
      </trkpt>
      <trkpt lat="45.10863" lon="2.64437">
        <ele>1542.94</ele>
        <time>2022-10-22T09:56:31.105Z</time>
      </trkpt>
      <trkpt lat="45.10869" lon="2.64424">
        <ele>1543.94</ele>
        <time>2022-10-22T09:56:40.964Z</time>
      </trkpt>
      <trkpt lat="45.10874" lon="2.64413">
        <ele>1542.2</ele>
        <time>2022-10-22T09:56:50.168Z</time>
      </trkpt>
      <trkpt lat="45.10878" lon="2.64401">
        <ele>1542.94</ele>
        <time>2022-10-22T09:57:00.000Z</time>
      </trkpt>
      <trkpt lat="45.10884" lon="2.64386">
        <ele>1542.94</ele>
        <time>2022-10-22T09:57:09.962Z</time>
      </trkpt>
      <trkpt lat="45.10888" lon="2.64375">
        <ele>1542.94</ele>
        <time>2022-10-22T09:57:19.000Z</time>
      </trkpt>
      <trkpt lat="45.10895" lon="2.64361">
        <ele>1543.93</ele>
        <time>2022-10-22T09:57:28.401Z</time>
      </trkpt>
      <trkpt lat="45.109" lon="2.64351">
        <ele>1543.94</ele>
        <time>2022-10-22T09:57:37.542Z</time>
      </trkpt>
      <trkpt lat="45.10905" lon="2.64338">
        <ele>1543.94</ele>
        <time>2022-10-22T09:57:47.073Z</time>
      </trkpt>
      <trkpt lat="45.10908" lon="2.64325">
        <ele>1543.94</ele>
        <time>2022-10-22T09:57:56.082Z</time>
      </trkpt>
      <trkpt lat="45.10913" lon="2.64313">
        <ele>1543.94</ele>
        <time>2022-10-22T09:58:05.664Z</time>
      </trkpt>
      <trkpt lat="45.10919" lon="2.64307">
        <ele>1543.94</ele>
        <time>2022-10-22T09:58:15.000Z</time>
      </trkpt>
      <trkpt lat="45.10924" lon="2.64298">
        <ele>1543.95</ele>
        <time>2022-10-22T09:58:26.000Z</time>
      </trkpt>
      <trkpt lat="45.10924" lon="2.64288">
        <ele>1544.94</ele>
        <time>2022-10-22T09:58:37.000Z</time>
      </trkpt>
      <trkpt lat="45.10919" lon="2.64278">
        <ele>1543.94</ele>
        <time>2022-10-22T09:58:46.463Z</time>
      </trkpt>
      <trkpt lat="45.10915" lon="2.6427">
        <ele>1543.95</ele>
        <time>2022-10-22T09:58:55.733Z</time>
      </trkpt>
      <trkpt lat="45.10913" lon="2.64258">
        <ele>1543.7</ele>
        <time>2022-10-22T09:59:07.000Z</time>
      </trkpt>
      <trkpt lat="45.10912" lon="2.64245">
        <ele>1542.76</ele>
        <time>2022-10-22T09:59:17.000Z</time>
      </trkpt>
      <trkpt lat="45.10913" lon="2.64231">
        <ele>1541.95</ele>
        <time>2022-10-22T09:59:28.000Z</time>
      </trkpt>
      <trkpt lat="45.10914" lon="2.6422">
        <ele>1542.95</ele>
        <time>2022-10-22T09:59:38.000Z</time>
      </trkpt>
      <trkpt lat="45.10915" lon="2.64212">
        <ele>1543.88</ele>
        <time>2022-10-22T09:59:48.000Z</time>
      </trkpt>
      <trkpt lat="45.10917" lon="2.64206">
        <ele>1543.95</ele>
        <time>2022-10-22T09:59:58.000Z</time>
      </trkpt>
      <trkpt lat="45.10916" lon="2.64196">
        <ele>1544.95</ele>
        <time>2022-10-22T10:00:09.000Z</time>
      </trkpt>
      <trkpt lat="45.10919" lon="2.64189">
        <ele>1544.95</ele>
        <time>2022-10-22T10:00:19.000Z</time>
      </trkpt>
      <trkpt lat="45.10919" lon="2.64179">
        <ele>1544.95</ele>
        <time>2022-10-22T10:00:30.000Z</time>
      </trkpt>
      <trkpt lat="45.10922" lon="2.64172">
        <ele>1543.95</ele>
        <time>2022-10-22T10:00:39.425Z</time>
      </trkpt>
      <trkpt lat="45.10923" lon="2.6416">
        <ele>1544.7</ele>
        <time>2022-10-22T10:00:48.441Z</time>
      </trkpt>
      <trkpt lat="45.10924" lon="2.6415">
        <ele>1544.95</ele>
        <time>2022-10-22T10:01:00.000Z</time>
      </trkpt>
      <trkpt lat="45.10929" lon="2.64139">
        <ele>1545.95</ele>
        <time>2022-10-22T10:01:10.000Z</time>
      </trkpt>
      <trkpt lat="45.10932" lon="2.6413">
        <ele>1546.95</ele>
        <time>2022-10-22T10:01:20.000Z</time>
      </trkpt>
      <trkpt lat="45.10933" lon="2.64118">
        <ele>1546.95</ele>
        <time>2022-10-22T10:01:31.000Z</time>
      </trkpt>
      <trkpt lat="45.10935" lon="2.64109">
        <ele>1546.95</ele>
        <time>2022-10-22T10:01:42.000Z</time>
      </trkpt>
      <trkpt lat="45.10937" lon="2.64096">
        <ele>1547.89</ele>
        <time>2022-10-22T10:01:51.990Z</time>
      </trkpt>
      <trkpt lat="45.10939" lon="2.64087">
        <ele>1545.95</ele>
        <time>2022-10-22T10:02:02.000Z</time>
      </trkpt>
      <trkpt lat="45.10942" lon="2.64078">
        <ele>1544.95</ele>
        <time>2022-10-22T10:02:13.000Z</time>
      </trkpt>
      <trkpt lat="45.10943" lon="2.64063">
        <ele>1544.95</ele>
        <time>2022-10-22T10:02:22.644Z</time>
      </trkpt>
      <trkpt lat="45.10945" lon="2.64051">
        <ele>1545.95</ele>
        <time>2022-10-22T10:02:32.064Z</time>
      </trkpt>
      <trkpt lat="45.1095" lon="2.64044">
        <ele>1545.89</ele>
        <time>2022-10-22T10:02:41.806Z</time>
      </trkpt>
      <trkpt lat="45.1095" lon="2.64035">
        <ele>1545.94</ele>
        <time>2022-10-22T10:02:52.000Z</time>
      </trkpt>
      <trkpt lat="45.10953" lon="2.64027">
        <ele>1548.14</ele>
        <time>2022-10-22T10:03:03.000Z</time>
      </trkpt>
      <trkpt lat="45.10954" lon="2.64017">
        <ele>1549.7</ele>
        <time>2022-10-22T10:03:13.000Z</time>
      </trkpt>
      <trkpt lat="45.10957" lon="2.64005">
        <ele>1549.95</ele>
        <time>2022-10-22T10:03:22.353Z</time>
      </trkpt>
      <trkpt lat="45.10957" lon="2.63999">
        <ele>1551.89</ele>
        <time>2022-10-22T10:03:32.000Z</time>
      </trkpt>
      <trkpt lat="45.10959" lon="2.63987">
        <ele>1552.95</ele>
        <time>2022-10-22T10:03:43.000Z</time>
      </trkpt>
      <trkpt lat="45.10962" lon="2.63979">
        <ele>1554.89</ele>
        <time>2022-10-22T10:03:53.000Z</time>
      </trkpt>
      <trkpt lat="45.10964" lon="2.63971">
        <ele>1554.89</ele>
        <time>2022-10-22T10:04:02.566Z</time>
      </trkpt>
      <trkpt lat="45.10965" lon="2.63965">
        <ele>1556.89</ele>
        <time>2022-10-22T10:04:12.000Z</time>
      </trkpt>
      <trkpt lat="45.10965" lon="2.63957">
        <ele>1556.95</ele>
        <time>2022-10-22T10:04:22.000Z</time>
      </trkpt>
      <trkpt lat="45.10971" lon="2.63944">
        <ele>1555.89</ele>
        <time>2022-10-22T10:04:31.565Z</time>
      </trkpt>
      <trkpt lat="45.10976" lon="2.63932">
        <ele>1554.95</ele>
        <time>2022-10-22T10:04:40.943Z</time>
      </trkpt>
      <trkpt lat="45.10979" lon="2.63922">
        <ele>1555.95</ele>
        <time>2022-10-22T10:04:51.000Z</time>
      </trkpt>
      <trkpt lat="45.10981" lon="2.6391">
        <ele>1556.95</ele>
        <time>2022-10-22T10:05:00.424Z</time>
      </trkpt>
      <trkpt lat="45.10982" lon="2.63901">
        <ele>1556.95</ele>
        <time>2022-10-22T10:05:11.000Z</time>
      </trkpt>
      <trkpt lat="45.10984" lon="2.63891">
        <ele>1558.95</ele>
        <time>2022-10-22T10:05:22.000Z</time>
      </trkpt>
      <trkpt lat="45.10985" lon="2.63883">
        <ele>1559.94</ele>
        <time>2022-10-22T10:05:33.000Z</time>
      </trkpt>
      <trkpt lat="45.10987" lon="2.63877">
        <ele>1559.95</ele>
        <time>2022-10-22T10:05:43.000Z</time>
      </trkpt>
      <trkpt lat="45.10988" lon="2.63872">
        <ele>1561.7</ele>
        <time>2022-10-22T10:05:53.000Z</time>
      </trkpt>
      <trkpt lat="45.10989" lon="2.63868">
        <ele>1563.89</ele>
        <time>2022-10-22T10:06:03.000Z</time>
      </trkpt>
      <trkpt lat="45.10987" lon="2.63858">
        <ele>1563.97</ele>
        <time>2022-10-22T10:06:14.000Z</time>
      </trkpt>
      <trkpt lat="45.10988" lon="2.63853">
        <ele>1564.95</ele>
        <time>2022-10-22T10:06:24.000Z</time>
      </trkpt>
      <trkpt lat="45.10991" lon="2.63842">
        <ele>1566.7</ele>
        <time>2022-10-22T10:06:35.000Z</time>
      </trkpt>
      <trkpt lat="45.1099" lon="2.63831">
        <ele>1568.89</ele>
        <time>2022-10-22T10:06:45.000Z</time>
      </trkpt>
      <trkpt lat="45.10991" lon="2.63822">
        <ele>1568.95</ele>
        <time>2022-10-22T10:06:54.461Z</time>
      </trkpt>
      <trkpt lat="45.1099" lon="2.6381">
        <ele>1569.7</ele>
        <time>2022-10-22T10:07:05.000Z</time>
      </trkpt>
      <trkpt lat="45.10995" lon="2.63798">
        <ele>1569.95</ele>
        <time>2022-10-22T10:07:16.000Z</time>
      </trkpt>
      <trkpt lat="45.10995" lon="2.63794">
        <ele>1569.95</ele>
        <time>2022-10-22T10:07:26.000Z</time>
      </trkpt>
      <trkpt lat="45.10994" lon="2.63796">
        <ele>1569.95</ele>
        <time>2022-10-22T10:07:39.000Z</time>
      </trkpt>
      <trkpt lat="45.10994" lon="2.63795">
        <ele>1569.96</ele>
        <time>2022-10-22T10:09:21.000Z</time>
      </trkpt>
      <trkpt lat="45.10993" lon="2.63794">
        <ele>1569.2</ele>
        <time>2022-10-22T10:09:31.000Z</time>
      </trkpt>
      <trkpt lat="45.10984" lon="2.63786">
        <ele>1569.95</ele>
        <time>2022-10-22T10:09:40.564Z</time>
      </trkpt>
      <trkpt lat="45.10975" lon="2.6378">
        <ele>1569.95</ele>
        <time>2022-10-22T10:09:49.884Z</time>
      </trkpt>
      <trkpt lat="45.10972" lon="2.63769">
        <ele>1568.97</ele>
        <time>2022-10-22T10:10:00.072Z</time>
      </trkpt>
      <trkpt lat="45.10965" lon="2.6376">
        <ele>1566.95</ele>
        <time>2022-10-22T10:10:09.465Z</time>
      </trkpt>
      <trkpt lat="45.10958" lon="2.63751">
        <ele>1565.95</ele>
        <time>2022-10-22T10:10:19.000Z</time>
      </trkpt>
      <trkpt lat="45.10949" lon="2.63743">
        <ele>1566.7</ele>
        <time>2022-10-22T10:10:29.000Z</time>
      </trkpt>
      <trkpt lat="45.10944" lon="2.63729">
        <ele>1566.02</ele>
        <time>2022-10-22T10:10:38.131Z</time>
      </trkpt>
      <trkpt lat="45.10935" lon="2.63724">
        <ele>1567.94</ele>
        <time>2022-10-22T10:10:47.742Z</time>
      </trkpt>
      <trkpt lat="45.1093" lon="2.63718">
        <ele>1568.89</ele>
        <time>2022-10-22T10:10:58.000Z</time>
      </trkpt>
      <trkpt lat="45.10928" lon="2.63713">
        <ele>1569.94</ele>
        <time>2022-10-22T10:11:08.000Z</time>
      </trkpt>
      <trkpt lat="45.10927" lon="2.63716">
        <ele>1569.95</ele>
        <time>2022-10-22T10:11:18.000Z</time>
      </trkpt>
      <trkpt lat="45.10926" lon="2.63719">
        <ele>1570.7</ele>
        <time>2022-10-22T10:11:29.000Z</time>
      </trkpt>
      <trkpt lat="45.10924" lon="2.6372">
        <ele>1570.95</ele>
        <time>2022-10-22T10:11:39.000Z</time>
      </trkpt>
      <trkpt lat="45.10924" lon="2.63719">
        <ele>1570.02</ele>
        <time>2022-10-22T10:12:06.000Z</time>
      </trkpt>
      <trkpt lat="45.10924" lon="2.63721">
        <ele>1571.64</ele>
        <time>2022-10-22T10:14:51.000Z</time>
      </trkpt>
      <trkpt lat="45.10925" lon="2.63719">
        <ele>1572.95</ele>
        <time>2022-10-22T10:15:26.000Z</time>
      </trkpt>
      <trkpt lat="45.10927" lon="2.63712">
        <ele>1572.7</ele>
        <time>2022-10-22T10:15:36.000Z</time>
      </trkpt>
      <trkpt lat="45.10922" lon="2.63703">
        <ele>1571.95</ele>
        <time>2022-10-22T10:15:47.000Z</time>
      </trkpt>
      <trkpt lat="45.1092" lon="2.63694">
        <ele>1571.95</ele>
        <time>2022-10-22T10:15:57.000Z</time>
      </trkpt>
      <trkpt lat="45.1092" lon="2.63691">
        <ele>1571.95</ele>
        <time>2022-10-22T10:16:06.764Z</time>
      </trkpt>
      <trkpt lat="45.10918" lon="2.63684">
        <ele>1571.2</ele>
        <time>2022-10-22T10:16:16.502Z</time>
      </trkpt>
      <trkpt lat="45.10916" lon="2.63675">
        <ele>1570.95</ele>
        <time>2022-10-22T10:16:26.000Z</time>
      </trkpt>
      <trkpt lat="45.10912" lon="2.63669">
        <ele>1570.75</ele>
        <time>2022-10-22T10:16:37.000Z</time>
      </trkpt>
      <trkpt lat="45.10906" lon="2.63661">
        <ele>1569.96</ele>
        <time>2022-10-22T10:16:46.792Z</time>
      </trkpt>
      <trkpt lat="45.10903" lon="2.63654">
        <ele>1568.96</ele>
        <time>2022-10-22T10:16:56.000Z</time>
      </trkpt>
      <trkpt lat="45.10901" lon="2.63645">
        <ele>1567.96</ele>
        <time>2022-10-22T10:17:06.000Z</time>
      </trkpt>
      <trkpt lat="45.10899" lon="2.63642">
        <ele>1567.96</ele>
        <time>2022-10-22T10:17:16.000Z</time>
      </trkpt>
      <trkpt lat="45.10893" lon="2.63631">
        <ele>1567.02</ele>
        <time>2022-10-22T10:17:25.554Z</time>
      </trkpt>
      <trkpt lat="45.10892" lon="2.63626">
        <ele>1566.96</ele>
        <time>2022-10-22T10:17:35.000Z</time>
      </trkpt>
      <trkpt lat="45.10891" lon="2.63622">
        <ele>1566.96</ele>
        <time>2022-10-22T10:17:45.000Z</time>
      </trkpt>
      <trkpt lat="45.10887" lon="2.63614">
        <ele>1566.96</ele>
        <time>2022-10-22T10:17:55.000Z</time>
      </trkpt>
      <trkpt lat="45.10887" lon="2.63611">
        <ele>1565.97</ele>
        <time>2022-10-22T10:18:04.465Z</time>
      </trkpt>
      <trkpt lat="45.10884" lon="2.63603">
        <ele>1564.96</ele>
        <time>2022-10-22T10:18:14.000Z</time>
      </trkpt>
      <trkpt lat="45.10879" lon="2.63594">
        <ele>1566.7</ele>
        <time>2022-10-22T10:18:24.000Z</time>
      </trkpt>
      <trkpt lat="45.10878" lon="2.63593">
        <ele>1566.96</ele>
        <time>2022-10-22T10:18:34.000Z</time>
      </trkpt>
      <trkpt lat="45.10878" lon="2.63591">
        <ele>1566.96</ele>
        <time>2022-10-22T10:18:53.000Z</time>
      </trkpt>
      <trkpt lat="45.10875" lon="2.63584">
        <ele>1566.14</ele>
        <time>2022-10-22T10:19:03.000Z</time>
      </trkpt>
      <trkpt lat="45.10871" lon="2.63575">
        <ele>1564.21</ele>
        <time>2022-10-22T10:19:12.523Z</time>
      </trkpt>
      <trkpt lat="45.10867" lon="2.63568">
        <ele>1563.96</ele>
        <time>2022-10-22T10:19:24.000Z</time>
      </trkpt>
      <trkpt lat="45.10865" lon="2.63558">
        <ele>1563.95</ele>
        <time>2022-10-22T10:19:34.000Z</time>
      </trkpt>
      <trkpt lat="45.10864" lon="2.63548">
        <ele>1565.95</ele>
        <time>2022-10-22T10:19:43.542Z</time>
      </trkpt>
      <trkpt lat="45.10864" lon="2.63544">
        <ele>1565.96</ele>
        <time>2022-10-22T10:19:53.000Z</time>
      </trkpt>
      <trkpt lat="45.1086" lon="2.63541">
        <ele>1568.71</ele>
        <time>2022-10-22T10:20:05.000Z</time>
      </trkpt>
      <trkpt lat="45.10857" lon="2.63531">
        <ele>1567.94</ele>
        <time>2022-10-22T10:20:14.394Z</time>
      </trkpt>
      <trkpt lat="45.10855" lon="2.63523">
        <ele>1567.96</ele>
        <time>2022-10-22T10:20:23.446Z</time>
      </trkpt>
      <trkpt lat="45.10851" lon="2.63515">
        <ele>1566.21</ele>
        <time>2022-10-22T10:20:34.000Z</time>
      </trkpt>
      <trkpt lat="45.10845" lon="2.63509">
        <ele>1567.9</ele>
        <time>2022-10-22T10:20:45.000Z</time>
      </trkpt>
      <trkpt lat="45.10845" lon="2.63507">
        <ele>1569.9</ele>
        <time>2022-10-22T10:20:55.000Z</time>
      </trkpt>
      <trkpt lat="45.10842" lon="2.63507">
        <ele>1569.96</ele>
        <time>2022-10-22T10:21:05.000Z</time>
      </trkpt>
      <trkpt lat="45.10837" lon="2.63503">
        <ele>1570.96</ele>
        <time>2022-10-22T10:21:14.565Z</time>
      </trkpt>
      <trkpt lat="45.10836" lon="2.63502">
        <ele>1571.71</ele>
        <time>2022-10-22T10:21:45.000Z</time>
      </trkpt>
      <trkpt lat="45.10834" lon="2.63495">
        <ele>1572.9</ele>
        <time>2022-10-22T10:21:55.000Z</time>
      </trkpt>
      <trkpt lat="45.10837" lon="2.63494">
        <ele>1572.71</ele>
        <time>2022-10-22T10:22:04.872Z</time>
      </trkpt>
      <trkpt lat="45.10837" lon="2.63492">
        <ele>1574.71</ele>
        <time>2022-10-22T10:22:14.000Z</time>
      </trkpt>
      <trkpt lat="45.1084" lon="2.63491">
        <ele>1575.71</ele>
        <time>2022-10-22T10:22:25.000Z</time>
      </trkpt>
      <trkpt lat="45.10842" lon="2.63489">
        <ele>1576.96</ele>
        <time>2022-10-22T10:22:37.000Z</time>
      </trkpt>
      <trkpt lat="45.10843" lon="2.63489">
        <ele>1577.71</ele>
        <time>2022-10-22T10:23:03.000Z</time>
      </trkpt>
      <trkpt lat="45.10846" lon="2.6349">
        <ele>1578.9</ele>
        <time>2022-10-22T10:23:13.000Z</time>
      </trkpt>
      <trkpt lat="45.10847" lon="2.63487">
        <ele>1582.89</ele>
        <time>2022-10-22T10:23:23.064Z</time>
      </trkpt>
      <trkpt lat="45.10848" lon="2.63485">
        <ele>1582.96</ele>
        <time>2022-10-22T10:23:33.000Z</time>
      </trkpt>
      <trkpt lat="45.10848" lon="2.63482">
        <ele>1583.96</ele>
        <time>2022-10-22T10:23:43.000Z</time>
      </trkpt>
      <trkpt lat="45.1085" lon="2.63481">
        <ele>1584.71</ele>
        <time>2022-10-22T10:23:55.000Z</time>
      </trkpt>
      <trkpt lat="45.10852" lon="2.6348">
        <ele>1584.9</ele>
        <time>2022-10-22T10:24:07.000Z</time>
      </trkpt>
      <trkpt lat="45.10854" lon="2.63478">
        <ele>1586.71</ele>
        <time>2022-10-22T10:24:18.000Z</time>
      </trkpt>
      <trkpt lat="45.10858" lon="2.63477">
        <ele>1586.96</ele>
        <time>2022-10-22T10:24:27.981Z</time>
      </trkpt>
      <trkpt lat="45.10861" lon="2.63479">
        <ele>1588.71</ele>
        <time>2022-10-22T10:24:38.070Z</time>
      </trkpt>
      <trkpt lat="45.10863" lon="2.63479">
        <ele>1590.71</ele>
        <time>2022-10-22T10:24:48.000Z</time>
      </trkpt>
      <trkpt lat="45.10865" lon="2.63477">
        <ele>1591.96</ele>
        <time>2022-10-22T10:24:58.000Z</time>
      </trkpt>
      <trkpt lat="45.10865" lon="2.63476">
        <ele>1592.94</ele>
        <time>2022-10-22T10:25:13.000Z</time>
      </trkpt>
      <trkpt lat="45.10864" lon="2.63469">
        <ele>1592.96</ele>
        <time>2022-10-22T10:25:23.000Z</time>
      </trkpt>
      <trkpt lat="45.10859" lon="2.6346">
        <ele>1592.96</ele>
        <time>2022-10-22T10:25:32.632Z</time>
      </trkpt>
      <trkpt lat="45.10857" lon="2.63458">
        <ele>1592.96</ele>
        <time>2022-10-22T10:25:42.000Z</time>
      </trkpt>
      <trkpt lat="45.10854" lon="2.63454">
        <ele>1591.21</ele>
        <time>2022-10-22T10:25:52.000Z</time>
      </trkpt>
      <trkpt lat="45.10855" lon="2.63455">
        <ele>1590.96</ele>
        <time>2022-10-22T10:26:09.000Z</time>
      </trkpt>
      <trkpt lat="45.10855" lon="2.63456">
        <ele>1591.96</ele>
        <time>2022-10-22T10:26:24.000Z</time>
      </trkpt>
      <trkpt lat="45.10854" lon="2.63459">
        <ele>1591.96</ele>
        <time>2022-10-22T10:26:35.000Z</time>
      </trkpt>
      <trkpt lat="45.10853" lon="2.63459">
        <ele>1591.96</ele>
        <time>2022-10-22T10:26:45.000Z</time>
      </trkpt>
      <trkpt lat="45.10853" lon="2.63458">
        <ele>1591.91</ele>
        <time>2022-10-22T10:33:51.000Z</time>
      </trkpt>
      <trkpt lat="45.10855" lon="2.63455">
        <ele>1590.96</ele>
        <time>2022-10-22T10:34:01.000Z</time>
      </trkpt>
      <trkpt lat="45.10855" lon="2.63453">
        <ele>1591.96</ele>
        <time>2022-10-22T10:34:11.000Z</time>
      </trkpt>
      <trkpt lat="45.10856" lon="2.63454">
        <ele>1592.02</ele>
        <time>2022-10-22T10:34:40.000Z</time>
      </trkpt>
      <trkpt lat="45.1086" lon="2.6346">
        <ele>1591.96</ele>
        <time>2022-10-22T10:34:49.702Z</time>
      </trkpt>
      <trkpt lat="45.10867" lon="2.63464">
        <ele>1591.96</ele>
        <time>2022-10-22T10:34:58.993Z</time>
      </trkpt>
      <trkpt lat="45.10872" lon="2.63468">
        <ele>1591.96</ele>
        <time>2022-10-22T10:35:08.000Z</time>
      </trkpt>
      <trkpt lat="45.10878" lon="2.63477">
        <ele>1592.95</ele>
        <time>2022-10-22T10:35:17.521Z</time>
      </trkpt>
      <trkpt lat="45.10882" lon="2.6348">
        <ele>1593.94</ele>
        <time>2022-10-22T10:35:27.000Z</time>
      </trkpt>
      <trkpt lat="45.10886" lon="2.63486">
        <ele>1594.96</ele>
        <time>2022-10-22T10:35:36.605Z</time>
      </trkpt>
      <trkpt lat="45.10887" lon="2.63492">
        <ele>1595.71</ele>
        <time>2022-10-22T10:35:46.000Z</time>
      </trkpt>
      <trkpt lat="45.1089" lon="2.63493">
        <ele>1596.71</ele>
        <time>2022-10-22T10:35:56.000Z</time>
      </trkpt>
      <trkpt lat="45.10892" lon="2.63495">
        <ele>1596.96</ele>
        <time>2022-10-22T10:36:06.000Z</time>
      </trkpt>
      <trkpt lat="45.10896" lon="2.63497">
        <ele>1598.71</ele>
        <time>2022-10-22T10:36:16.000Z</time>
      </trkpt>
      <trkpt lat="45.10898" lon="2.635">
        <ele>1600.96</ele>
        <time>2022-10-22T10:36:26.000Z</time>
      </trkpt>
      <trkpt lat="45.10901" lon="2.63505">
        <ele>1601.96</ele>
        <time>2022-10-22T10:36:36.000Z</time>
      </trkpt>
      <trkpt lat="45.10903" lon="2.63508">
        <ele>1602.96</ele>
        <time>2022-10-22T10:36:46.000Z</time>
      </trkpt>
      <trkpt lat="45.10904" lon="2.63511">
        <ele>1603.96</ele>
        <time>2022-10-22T10:36:56.000Z</time>
      </trkpt>
      <trkpt lat="45.10904" lon="2.63513">
        <ele>1604.71</ele>
        <time>2022-10-22T10:37:14.000Z</time>
      </trkpt>
      <trkpt lat="45.10906" lon="2.63514">
        <ele>1603.96</ele>
        <time>2022-10-22T10:37:24.000Z</time>
      </trkpt>
      <trkpt lat="45.10905" lon="2.63515">
        <ele>1600.96</ele>
        <time>2022-10-22T10:53:34.000Z</time>
      </trkpt>
      <trkpt lat="45.10906" lon="2.63516">
        <ele>1602.96</ele>
        <time>2022-10-22T10:55:45.000Z</time>
      </trkpt>
      <trkpt lat="45.10903" lon="2.63516">
        <ele>1601.96</ele>
        <time>2022-10-22T10:55:54.893Z</time>
      </trkpt>
      <trkpt lat="45.10902" lon="2.63514">
        <ele>1600.96</ele>
        <time>2022-10-22T10:56:04.000Z</time>
      </trkpt>
      <trkpt lat="45.109" lon="2.63512">
        <ele>1599.96</ele>
        <time>2022-10-22T10:56:14.000Z</time>
      </trkpt>
      <trkpt lat="45.10897" lon="2.6351">
        <ele>1598.96</ele>
        <time>2022-10-22T10:56:24.000Z</time>
      </trkpt>
      <trkpt lat="45.10894" lon="2.63503">
        <ele>1597.96</ele>
        <time>2022-10-22T10:56:34.000Z</time>
      </trkpt>
      <trkpt lat="45.10892" lon="2.63498">
        <ele>1596.96</ele>
        <time>2022-10-22T10:56:43.587Z</time>
      </trkpt>
      <trkpt lat="45.10888" lon="2.63493">
        <ele>1595.21</ele>
        <time>2022-10-22T10:56:53.000Z</time>
      </trkpt>
      <trkpt lat="45.10884" lon="2.63489">
        <ele>1593.96</ele>
        <time>2022-10-22T10:57:03.000Z</time>
      </trkpt>
      <trkpt lat="45.1088" lon="2.63481">
        <ele>1592.96</ele>
        <time>2022-10-22T10:57:13.000Z</time>
      </trkpt>
      <trkpt lat="45.10872" lon="2.63478">
        <ele>1591.96</ele>
        <time>2022-10-22T10:57:22.784Z</time>
      </trkpt>
      <trkpt lat="45.10867" lon="2.63476">
        <ele>1591.96</ele>
        <time>2022-10-22T10:57:33.000Z</time>
      </trkpt>
      <trkpt lat="45.10862" lon="2.63471">
        <ele>1591.96</ele>
        <time>2022-10-22T10:57:43.000Z</time>
      </trkpt>
      <trkpt lat="45.10859" lon="2.63471">
        <ele>1591.02</ele>
        <time>2022-10-22T10:57:53.000Z</time>
      </trkpt>
      <trkpt lat="45.10857" lon="2.63472">
        <ele>1589.02</ele>
        <time>2022-10-22T10:58:03.000Z</time>
      </trkpt>
      <trkpt lat="45.10856" lon="2.63472">
        <ele>1587.97</ele>
        <time>2022-10-22T10:58:13.000Z</time>
      </trkpt>
      <trkpt lat="45.10852" lon="2.63474">
        <ele>1585.96</ele>
        <time>2022-10-22T10:58:23.000Z</time>
      </trkpt>
      <trkpt lat="45.10851" lon="2.63474">
        <ele>1584.96</ele>
        <time>2022-10-22T10:58:33.000Z</time>
      </trkpt>
      <trkpt lat="45.10847" lon="2.63473">
        <ele>1582.96</ele>
        <time>2022-10-22T10:58:42.782Z</time>
      </trkpt>
      <trkpt lat="45.10846" lon="2.63473">
        <ele>1580.96</ele>
        <time>2022-10-22T10:58:51.982Z</time>
      </trkpt>
      <trkpt lat="45.10844" lon="2.63476">
        <ele>1579.96</ele>
        <time>2022-10-22T10:59:02.000Z</time>
      </trkpt>
      <trkpt lat="45.10841" lon="2.63478">
        <ele>1577.96</ele>
        <time>2022-10-22T10:59:13.000Z</time>
      </trkpt>
      <trkpt lat="45.1084" lon="2.63481">
        <ele>1577.96</ele>
        <time>2022-10-22T10:59:23.000Z</time>
      </trkpt>
      <trkpt lat="45.10839" lon="2.63486">
        <ele>1577.96</ele>
        <time>2022-10-22T10:59:33.000Z</time>
      </trkpt>
      <trkpt lat="45.10838" lon="2.63492">
        <ele>1574.96</ele>
        <time>2022-10-22T10:59:43.000Z</time>
      </trkpt>
      <trkpt lat="45.10837" lon="2.63494">
        <ele>1571.96</ele>
        <time>2022-10-22T10:59:53.000Z</time>
      </trkpt>
      <trkpt lat="45.10837" lon="2.63499">
        <ele>1570.96</ele>
        <time>2022-10-22T11:00:04.000Z</time>
      </trkpt>
      <trkpt lat="45.1084" lon="2.63504">
        <ele>1569.02</ele>
        <time>2022-10-22T11:00:14.000Z</time>
      </trkpt>
      <trkpt lat="45.10845" lon="2.6351">
        <ele>1566.96</ele>
        <time>2022-10-22T11:00:25.000Z</time>
      </trkpt>
      <trkpt lat="45.10847" lon="2.63512">
        <ele>1565.97</ele>
        <time>2022-10-22T11:00:35.000Z</time>
      </trkpt>
      <trkpt lat="45.10852" lon="2.63518">
        <ele>1565.19</ele>
        <time>2022-10-22T11:00:45.000Z</time>
      </trkpt>
      <trkpt lat="45.10858" lon="2.6353">
        <ele>1564.96</ele>
        <time>2022-10-22T11:00:54.634Z</time>
      </trkpt>
      <trkpt lat="45.1086" lon="2.63538">
        <ele>1564.97</ele>
        <time>2022-10-22T11:01:04.000Z</time>
      </trkpt>
      <trkpt lat="45.10865" lon="2.63546">
        <ele>1564.96</ele>
        <time>2022-10-22T11:01:16.000Z</time>
      </trkpt>
      <trkpt lat="45.10865" lon="2.63551">
        <ele>1563.96</ele>
        <time>2022-10-22T11:01:26.000Z</time>
      </trkpt>
      <trkpt lat="45.10868" lon="2.63558">
        <ele>1563.96</ele>
        <time>2022-10-22T11:01:36.000Z</time>
      </trkpt>
      <trkpt lat="45.10868" lon="2.63562">
        <ele>1562.96</ele>
        <time>2022-10-22T11:01:46.000Z</time>
      </trkpt>
      <trkpt lat="45.10869" lon="2.63567">
        <ele>1562.96</ele>
        <time>2022-10-22T11:01:55.057Z</time>
      </trkpt>
      <trkpt lat="45.10868" lon="2.63576">
        <ele>1561.21</ele>
        <time>2022-10-22T11:02:05.000Z</time>
      </trkpt>
      <trkpt lat="45.1087" lon="2.63585">
        <ele>1559.96</ele>
        <time>2022-10-22T11:02:16.000Z</time>
      </trkpt>
      <trkpt lat="45.1087" lon="2.63593">
        <ele>1558.96</ele>
        <time>2022-10-22T11:02:26.000Z</time>
      </trkpt>
      <trkpt lat="45.10872" lon="2.63603">
        <ele>1556.96</ele>
        <time>2022-10-22T11:02:37.000Z</time>
      </trkpt>
      <trkpt lat="45.10873" lon="2.63613">
        <ele>1556.96</ele>
        <time>2022-10-22T11:02:47.000Z</time>
      </trkpt>
      <trkpt lat="45.10875" lon="2.63627">
        <ele>1555.96</ele>
        <time>2022-10-22T11:02:56.505Z</time>
      </trkpt>
      <trkpt lat="45.10877" lon="2.63637">
        <ele>1555.97</ele>
        <time>2022-10-22T11:03:07.000Z</time>
      </trkpt>
      <trkpt lat="45.10882" lon="2.63648">
        <ele>1555.96</ele>
        <time>2022-10-22T11:03:16.707Z</time>
      </trkpt>
      <trkpt lat="45.10882" lon="2.63657">
        <ele>1555.02</ele>
        <time>2022-10-22T11:03:28.000Z</time>
      </trkpt>
      <trkpt lat="45.10885" lon="2.63669">
        <ele>1554.96</ele>
        <time>2022-10-22T11:03:37.641Z</time>
      </trkpt>
      <trkpt lat="45.10888" lon="2.63681">
        <ele>1552.97</ele>
        <time>2022-10-22T11:03:49.000Z</time>
      </trkpt>
      <trkpt lat="45.10889" lon="2.63694">
        <ele>1553.2</ele>
        <time>2022-10-22T11:03:58.922Z</time>
      </trkpt>
      <trkpt lat="45.10891" lon="2.63705">
        <ele>1551.97</ele>
        <time>2022-10-22T11:04:10.000Z</time>
      </trkpt>
      <trkpt lat="45.10895" lon="2.63713">
        <ele>1552.95</ele>
        <time>2022-10-22T11:04:20.000Z</time>
      </trkpt>
      <trkpt lat="45.10896" lon="2.63723">
        <ele>1552.95</ele>
        <time>2022-10-22T11:04:30.000Z</time>
      </trkpt>
      <trkpt lat="45.109" lon="2.6373">
        <ele>1552.96</ele>
        <time>2022-10-22T11:04:40.000Z</time>
      </trkpt>
      <trkpt lat="45.10902" lon="2.6374">
        <ele>1552.95</ele>
        <time>2022-10-22T11:04:50.000Z</time>
      </trkpt>
      <trkpt lat="45.10904" lon="2.63747">
        <ele>1552.95</ele>
        <time>2022-10-22T11:05:00.000Z</time>
      </trkpt>
      <trkpt lat="45.10906" lon="2.63752">
        <ele>1551.97</ele>
        <time>2022-10-22T11:05:10.000Z</time>
      </trkpt>
      <trkpt lat="45.10907" lon="2.63753">
        <ele>1551.95</ele>
        <time>2022-10-22T11:05:19.723Z</time>
      </trkpt>
      <trkpt lat="45.10908" lon="2.63758">
        <ele>1551.95</ele>
        <time>2022-10-22T11:05:29.000Z</time>
      </trkpt>
      <trkpt lat="45.10911" lon="2.63763">
        <ele>1550.95</ele>
        <time>2022-10-22T11:05:38.570Z</time>
      </trkpt>
      <trkpt lat="45.10913" lon="2.63768">
        <ele>1549.95</ele>
        <time>2022-10-22T11:05:48.000Z</time>
      </trkpt>
      <trkpt lat="45.1092" lon="2.63778">
        <ele>1548.75</ele>
        <time>2022-10-22T11:05:57.804Z</time>
      </trkpt>
      <trkpt lat="45.10922" lon="2.63784">
        <ele>1548.95</ele>
        <time>2022-10-22T11:06:07.000Z</time>
      </trkpt>
      <trkpt lat="45.10925" lon="2.63789">
        <ele>1547.95</ele>
        <time>2022-10-22T11:06:16.816Z</time>
      </trkpt>
      <trkpt lat="45.10927" lon="2.63792">
        <ele>1547.95</ele>
        <time>2022-10-22T11:06:26.000Z</time>
      </trkpt>
      <trkpt lat="45.10934" lon="2.63798">
        <ele>1547.95</ele>
        <time>2022-10-22T11:06:35.682Z</time>
      </trkpt>
      <trkpt lat="45.10938" lon="2.63804">
        <ele>1547.95</ele>
        <time>2022-10-22T11:06:46.000Z</time>
      </trkpt>
      <trkpt lat="45.10943" lon="2.6381">
        <ele>1546.95</ele>
        <time>2022-10-22T11:06:56.000Z</time>
      </trkpt>
      <trkpt lat="45.10948" lon="2.63821">
        <ele>1546.95</ele>
        <time>2022-10-22T11:07:05.946Z</time>
      </trkpt>
      <trkpt lat="45.10952" lon="2.63828">
        <ele>1547.95</ele>
        <time>2022-10-22T11:07:16.000Z</time>
      </trkpt>
      <trkpt lat="45.10955" lon="2.63835">
        <ele>1548.95</ele>
        <time>2022-10-22T11:07:25.741Z</time>
      </trkpt>
      <trkpt lat="45.10959" lon="2.63844">
        <ele>1548.95</ele>
        <time>2022-10-22T11:07:35.665Z</time>
      </trkpt>
      <trkpt lat="45.10962" lon="2.63851">
        <ele>1548.95</ele>
        <time>2022-10-22T11:07:45.543Z</time>
      </trkpt>
      <trkpt lat="45.10965" lon="2.63856">
        <ele>1549.95</ele>
        <time>2022-10-22T11:07:55.000Z</time>
      </trkpt>
      <trkpt lat="45.10968" lon="2.63861">
        <ele>1551.76</ele>
        <time>2022-10-22T11:08:06.000Z</time>
      </trkpt>
      <trkpt lat="45.10971" lon="2.6387">
        <ele>1552.95</ele>
        <time>2022-10-22T11:08:15.445Z</time>
      </trkpt>
      <trkpt lat="45.10972" lon="2.63872">
        <ele>1551.96</ele>
        <time>2022-10-22T11:08:25.000Z</time>
      </trkpt>
      <trkpt lat="45.10975" lon="2.63877">
        <ele>1553.95</ele>
        <time>2022-10-22T11:08:34.682Z</time>
      </trkpt>
      <trkpt lat="45.10977" lon="2.6388">
        <ele>1555.88</ele>
        <time>2022-10-22T11:08:44.000Z</time>
      </trkpt>
      <trkpt lat="45.10979" lon="2.63888">
        <ele>1555.95</ele>
        <time>2022-10-22T11:08:54.000Z</time>
      </trkpt>
      <trkpt lat="45.10981" lon="2.63893">
        <ele>1557.89</ele>
        <time>2022-10-22T11:09:04.000Z</time>
      </trkpt>
      <trkpt lat="45.10981" lon="2.63899">
        <ele>1558.2</ele>
        <time>2022-10-22T11:09:15.000Z</time>
      </trkpt>
      <trkpt lat="45.10978" lon="2.63913">
        <ele>1556.95</ele>
        <time>2022-10-22T11:09:25.000Z</time>
      </trkpt>
      <trkpt lat="45.10974" lon="2.63929">
        <ele>1556.95</ele>
        <time>2022-10-22T11:09:36.000Z</time>
      </trkpt>
      <trkpt lat="45.10969" lon="2.63942">
        <ele>1556.95</ele>
        <time>2022-10-22T11:09:46.000Z</time>
      </trkpt>
      <trkpt lat="45.10963" lon="2.63953">
        <ele>1556.89</ele>
        <time>2022-10-22T11:09:56.000Z</time>
      </trkpt>
      <trkpt lat="45.1096" lon="2.63956">
        <ele>1556.95</ele>
        <time>2022-10-22T11:10:06.511Z</time>
      </trkpt>
      <trkpt lat="45.10961" lon="2.63963">
        <ele>1556.95</ele>
        <time>2022-10-22T11:10:16.000Z</time>
      </trkpt>
      <trkpt lat="45.10959" lon="2.63972">
        <ele>1556.95</ele>
        <time>2022-10-22T11:10:26.000Z</time>
      </trkpt>
      <trkpt lat="45.10959" lon="2.63976">
        <ele>1556.01</ele>
        <time>2022-10-22T11:10:35.622Z</time>
      </trkpt>
      <trkpt lat="45.10956" lon="2.63983">
        <ele>1554.95</ele>
        <time>2022-10-22T11:10:44.785Z</time>
      </trkpt>
      <trkpt lat="45.10953" lon="2.63996">
        <ele>1553.95</ele>
        <time>2022-10-22T11:10:54.250Z</time>
      </trkpt>
      <trkpt lat="45.10953" lon="2.64005">
        <ele>1551.96</ele>
        <time>2022-10-22T11:11:04.000Z</time>
      </trkpt>
      <trkpt lat="45.10949" lon="2.64017">
        <ele>1551.95</ele>
        <time>2022-10-22T11:11:13.372Z</time>
      </trkpt>
      <trkpt lat="45.10949" lon="2.64027">
        <ele>1551.14</ele>
        <time>2022-10-22T11:11:23.000Z</time>
      </trkpt>
      <trkpt lat="45.10946" lon="2.64036">
        <ele>1549.95</ele>
        <time>2022-10-22T11:11:33.000Z</time>
      </trkpt>
      <trkpt lat="45.10945" lon="2.64048">
        <ele>1548.2</ele>
        <time>2022-10-22T11:11:45.000Z</time>
      </trkpt>
      <trkpt lat="45.10941" lon="2.64062">
        <ele>1546.01</ele>
        <time>2022-10-22T11:11:54.364Z</time>
      </trkpt>
      <trkpt lat="45.10937" lon="2.6407">
        <ele>1545.95</ele>
        <time>2022-10-22T11:12:04.000Z</time>
      </trkpt>
      <trkpt lat="45.10937" lon="2.64083">
        <ele>1546.95</ele>
        <time>2022-10-22T11:12:13.433Z</time>
      </trkpt>
      <trkpt lat="45.10935" lon="2.6409">
        <ele>1547.01</ele>
        <time>2022-10-22T11:12:22.573Z</time>
      </trkpt>
      <trkpt lat="45.10933" lon="2.641">
        <ele>1546.95</ele>
        <time>2022-10-22T11:12:34.000Z</time>
      </trkpt>
      <trkpt lat="45.1093" lon="2.64111">
        <ele>1546.15</ele>
        <time>2022-10-22T11:12:44.000Z</time>
      </trkpt>
      <trkpt lat="45.10928" lon="2.64117">
        <ele>1545.95</ele>
        <time>2022-10-22T11:12:54.000Z</time>
      </trkpt>
      <trkpt lat="45.10928" lon="2.64128">
        <ele>1546.93</ele>
        <time>2022-10-22T11:13:04.000Z</time>
      </trkpt>
      <trkpt lat="45.10927" lon="2.64136">
        <ele>1545.96</ele>
        <time>2022-10-22T11:13:13.626Z</time>
      </trkpt>
      <trkpt lat="45.10923" lon="2.64147">
        <ele>1544.96</ele>
        <time>2022-10-22T11:13:25.000Z</time>
      </trkpt>
      <trkpt lat="45.1092" lon="2.64161">
        <ele>1545.01</ele>
        <time>2022-10-22T11:13:34.854Z</time>
      </trkpt>
      <trkpt lat="45.10921" lon="2.64171">
        <ele>1544.93</ele>
        <time>2022-10-22T11:13:44.000Z</time>
      </trkpt>
      <trkpt lat="45.10918" lon="2.64182">
        <ele>1542.95</ele>
        <time>2022-10-22T11:13:53.865Z</time>
      </trkpt>
      <trkpt lat="45.10915" lon="2.64187">
        <ele>1541.95</ele>
        <time>2022-10-22T11:14:03.000Z</time>
      </trkpt>
      <trkpt lat="45.10916" lon="2.64193">
        <ele>1542.71</ele>
        <time>2022-10-22T11:14:13.000Z</time>
      </trkpt>
      <trkpt lat="45.10915" lon="2.64201">
        <ele>1542.95</ele>
        <time>2022-10-22T11:14:23.000Z</time>
      </trkpt>
      <trkpt lat="45.10914" lon="2.64209">
        <ele>1542.94</ele>
        <time>2022-10-22T11:14:33.000Z</time>
      </trkpt>
      <trkpt lat="45.10913" lon="2.64221">
        <ele>1542.95</ele>
        <time>2022-10-22T11:14:44.000Z</time>
      </trkpt>
      <trkpt lat="45.1091" lon="2.6423">
        <ele>1542.95</ele>
        <time>2022-10-22T11:14:54.000Z</time>
      </trkpt>
      <trkpt lat="45.10911" lon="2.64246">
        <ele>1541.95</ele>
        <time>2022-10-22T11:15:06.000Z</time>
      </trkpt>
      <trkpt lat="45.10913" lon="2.6426">
        <ele>1540.95</ele>
        <time>2022-10-22T11:15:16.000Z</time>
      </trkpt>
      <trkpt lat="45.10915" lon="2.64273">
        <ele>1541.94</ele>
        <time>2022-10-22T11:15:27.000Z</time>
      </trkpt>
      <trkpt lat="45.10919" lon="2.64286">
        <ele>1542.94</ele>
        <time>2022-10-22T11:15:38.000Z</time>
      </trkpt>
      <trkpt lat="45.10923" lon="2.64295">
        <ele>1543.94</ele>
        <time>2022-10-22T11:15:47.002Z</time>
      </trkpt>
      <trkpt lat="45.10923" lon="2.64301">
        <ele>1542.95</ele>
        <time>2022-10-22T11:15:57.000Z</time>
      </trkpt>
      <trkpt lat="45.10913" lon="2.64312">
        <ele>1541.94</ele>
        <time>2022-10-22T11:16:06.054Z</time>
      </trkpt>
      <trkpt lat="45.10907" lon="2.64322">
        <ele>1541.94</ele>
        <time>2022-10-22T11:16:17.000Z</time>
      </trkpt>
      <trkpt lat="45.10903" lon="2.64339">
        <ele>1540.94</ele>
        <time>2022-10-22T11:16:28.000Z</time>
      </trkpt>
      <trkpt lat="45.10897" lon="2.64353">
        <ele>1540.94</ele>
        <time>2022-10-22T11:16:38.000Z</time>
      </trkpt>
      <trkpt lat="45.10891" lon="2.64367">
        <ele>1539.95</ele>
        <time>2022-10-22T11:16:48.000Z</time>
      </trkpt>
      <trkpt lat="45.10883" lon="2.64383">
        <ele>1539.94</ele>
        <time>2022-10-22T11:16:57.477Z</time>
      </trkpt>
      <trkpt lat="45.10878" lon="2.64396">
        <ele>1540.88</ele>
        <time>2022-10-22T11:17:06.903Z</time>
      </trkpt>
      <trkpt lat="45.10873" lon="2.64408">
        <ele>1540.7</ele>
        <time>2022-10-22T11:17:18.000Z</time>
      </trkpt>
      <trkpt lat="45.10868" lon="2.64421">
        <ele>1541.69</ele>
        <time>2022-10-22T11:17:28.000Z</time>
      </trkpt>
      <trkpt lat="45.10862" lon="2.64434">
        <ele>1541.94</ele>
        <time>2022-10-22T11:17:37.202Z</time>
      </trkpt>
      <trkpt lat="45.10856" lon="2.64448">
        <ele>1541.94</ele>
        <time>2022-10-22T11:17:46.902Z</time>
      </trkpt>
      <trkpt lat="45.10854" lon="2.64457">
        <ele>1541.94</ele>
        <time>2022-10-22T11:17:58.000Z</time>
      </trkpt>
      <trkpt lat="45.10849" lon="2.64473">
        <ele>1542.94</ele>
        <time>2022-10-22T11:18:09.000Z</time>
      </trkpt>
      <trkpt lat="45.10844" lon="2.64488">
        <ele>1542.94</ele>
        <time>2022-10-22T11:18:18.057Z</time>
      </trkpt>
      <trkpt lat="45.10843" lon="2.64497">
        <ele>1542.94</ele>
        <time>2022-10-22T11:18:28.000Z</time>
      </trkpt>
      <trkpt lat="45.10838" lon="2.64508">
        <ele>1543.94</ele>
        <time>2022-10-22T11:18:38.000Z</time>
      </trkpt>
      <trkpt lat="45.10834" lon="2.64517">
        <ele>1545.69</ele>
        <time>2022-10-22T11:18:50.000Z</time>
      </trkpt>
      <trkpt lat="45.10835" lon="2.64518">
        <ele>1546.93</ele>
        <time>2022-10-22T11:19:13.000Z</time>
      </trkpt>
      <trkpt lat="45.10832" lon="2.64527">
        <ele>1547.94</ele>
        <time>2022-10-22T11:19:22.503Z</time>
      </trkpt>
      <trkpt lat="45.1083" lon="2.64533">
        <ele>1546.94</ele>
        <time>2022-10-22T11:19:34.000Z</time>
      </trkpt>
      <trkpt lat="45.10829" lon="2.64543">
        <ele>1547.94</ele>
        <time>2022-10-22T11:19:45.000Z</time>
      </trkpt>
      <trkpt lat="45.10829" lon="2.64549">
        <ele>1548.88</ele>
        <time>2022-10-22T11:19:55.000Z</time>
      </trkpt>
      <trkpt lat="45.1083" lon="2.64557">
        <ele>1550.69</ele>
        <time>2022-10-22T11:20:05.000Z</time>
      </trkpt>
      <trkpt lat="45.10833" lon="2.64566">
        <ele>1552.69</ele>
        <time>2022-10-22T11:20:15.000Z</time>
      </trkpt>
      <trkpt lat="45.10837" lon="2.6457">
        <ele>1553.88</ele>
        <time>2022-10-22T11:20:25.000Z</time>
      </trkpt>
      <trkpt lat="45.10837" lon="2.64574">
        <ele>1553.19</ele>
        <time>2022-10-22T11:20:34.844Z</time>
      </trkpt>
      <trkpt lat="45.10836" lon="2.64585">
        <ele>1553.88</ele>
        <time>2022-10-22T11:20:44.000Z</time>
      </trkpt>
      <trkpt lat="45.10832" lon="2.64599">
        <ele>1552.94</ele>
        <time>2022-10-22T11:20:53.683Z</time>
      </trkpt>
      <trkpt lat="45.1083" lon="2.64609">
        <ele>1552.69</ele>
        <time>2022-10-22T11:21:04.000Z</time>
      </trkpt>
      <trkpt lat="45.10824" lon="2.6462">
        <ele>1552.94</ele>
        <time>2022-10-22T11:21:15.000Z</time>
      </trkpt>
      <trkpt lat="45.10818" lon="2.64626">
        <ele>1553.13</ele>
        <time>2022-10-22T11:21:26.000Z</time>
      </trkpt>
      <trkpt lat="45.10816" lon="2.64631">
        <ele>1552.19</ele>
        <time>2022-10-22T11:21:36.000Z</time>
      </trkpt>
      <trkpt lat="45.1081" lon="2.6464">
        <ele>1551.94</ele>
        <time>2022-10-22T11:21:46.000Z</time>
      </trkpt>
      <trkpt lat="45.10807" lon="2.64643">
        <ele>1551.94</ele>
        <time>2022-10-22T11:21:56.000Z</time>
      </trkpt>
      <trkpt lat="45.108" lon="2.64645">
        <ele>1551.94</ele>
        <time>2022-10-22T11:22:06.000Z</time>
      </trkpt>
      <trkpt lat="45.10791" lon="2.64653">
        <ele>1551.94</ele>
        <time>2022-10-22T11:22:15.341Z</time>
      </trkpt>
      <trkpt lat="45.10782" lon="2.6466">
        <ele>1551.94</ele>
        <time>2022-10-22T11:22:26.000Z</time>
      </trkpt>
      <trkpt lat="45.10771" lon="2.64668">
        <ele>1551.94</ele>
        <time>2022-10-22T11:22:38.000Z</time>
      </trkpt>
      <trkpt lat="45.10769" lon="2.64676">
        <ele>1551.94</ele>
        <time>2022-10-22T11:22:48.000Z</time>
      </trkpt>
      <trkpt lat="45.10763" lon="2.64689">
        <ele>1550.94</ele>
        <time>2022-10-22T11:22:59.000Z</time>
      </trkpt>
      <trkpt lat="45.10759" lon="2.64698">
        <ele>1550.94</ele>
        <time>2022-10-22T11:23:09.000Z</time>
      </trkpt>
      <trkpt lat="45.10757" lon="2.64702">
        <ele>1552.94</ele>
        <time>2022-10-22T11:23:19.000Z</time>
      </trkpt>
      <trkpt lat="45.10749" lon="2.64714">
        <ele>1553.75</ele>
        <time>2022-10-22T11:23:28.292Z</time>
      </trkpt>
      <trkpt lat="45.10742" lon="2.64722">
        <ele>1552.94</ele>
        <time>2022-10-22T11:23:38.000Z</time>
      </trkpt>
      <trkpt lat="45.10733" lon="2.64731">
        <ele>1554.93</ele>
        <time>2022-10-22T11:23:47.503Z</time>
      </trkpt>
      <trkpt lat="45.10728" lon="2.64739">
        <ele>1555.94</ele>
        <time>2022-10-22T11:23:56.645Z</time>
      </trkpt>
      <trkpt lat="45.10723" lon="2.64746">
        <ele>1555.94</ele>
        <time>2022-10-22T11:24:07.000Z</time>
      </trkpt>
      <trkpt lat="45.10717" lon="2.64755">
        <ele>1556.94</ele>
        <time>2022-10-22T11:24:17.000Z</time>
      </trkpt>
      <trkpt lat="45.10714" lon="2.64765">
        <ele>1556.94</ele>
        <time>2022-10-22T11:24:27.000Z</time>
      </trkpt>
      <trkpt lat="45.10707" lon="2.64772">
        <ele>1558.93</ele>
        <time>2022-10-22T11:24:36.582Z</time>
      </trkpt>
      <trkpt lat="45.10702" lon="2.64779">
        <ele>1559.93</ele>
        <time>2022-10-22T11:24:45.624Z</time>
      </trkpt>
      <trkpt lat="45.10699" lon="2.64784">
        <ele>1560.88</ele>
        <time>2022-10-22T11:24:55.000Z</time>
      </trkpt>
      <trkpt lat="45.10695" lon="2.64791">
        <ele>1561.94</ele>
        <time>2022-10-22T11:25:05.000Z</time>
      </trkpt>
      <trkpt lat="45.1069" lon="2.64799">
        <ele>1563.69</ele>
        <time>2022-10-22T11:25:17.000Z</time>
      </trkpt>
      <trkpt lat="45.10688" lon="2.64808">
        <ele>1563.95</ele>
        <time>2022-10-22T11:25:27.000Z</time>
      </trkpt>
      <trkpt lat="45.10685" lon="2.64818">
        <ele>1565.94</ele>
        <time>2022-10-22T11:25:36.735Z</time>
      </trkpt>
      <trkpt lat="45.10682" lon="2.64826">
        <ele>1566.94</ele>
        <time>2022-10-22T11:25:46.325Z</time>
      </trkpt>
      <trkpt lat="45.1068" lon="2.64833">
        <ele>1567.95</ele>
        <time>2022-10-22T11:25:57.000Z</time>
      </trkpt>
      <trkpt lat="45.10679" lon="2.64836">
        <ele>1568.94</ele>
        <time>2022-10-22T11:26:07.000Z</time>
      </trkpt>
      <trkpt lat="45.10677" lon="2.64837">
        <ele>1569.94</ele>
        <time>2022-10-22T11:26:16.984Z</time>
      </trkpt>
      <trkpt lat="45.10675" lon="2.64847">
        <ele>1569.98</ele>
        <time>2022-10-22T11:26:27.000Z</time>
      </trkpt>
      <trkpt lat="45.10672" lon="2.64856">
        <ele>1571.92</ele>
        <time>2022-10-22T11:26:37.000Z</time>
      </trkpt>
      <trkpt lat="45.10669" lon="2.64865">
        <ele>1572.94</ele>
        <time>2022-10-22T11:26:46.865Z</time>
      </trkpt>
      <trkpt lat="45.10665" lon="2.64872">
        <ele>1574.94</ele>
        <time>2022-10-22T11:26:56.445Z</time>
      </trkpt>
      <trkpt lat="45.10661" lon="2.64878">
        <ele>1575.87</ele>
        <time>2022-10-22T11:27:06.000Z</time>
      </trkpt>
      <trkpt lat="45.10658" lon="2.64886">
        <ele>1576.94</ele>
        <time>2022-10-22T11:27:16.000Z</time>
      </trkpt>
      <trkpt lat="45.10656" lon="2.64896">
        <ele>1577.19</ele>
        <time>2022-10-22T11:27:27.000Z</time>
      </trkpt>
      <trkpt lat="45.10654" lon="2.64899">
        <ele>1577.94</ele>
        <time>2022-10-22T11:27:37.000Z</time>
      </trkpt>
      <trkpt lat="45.10653" lon="2.6491">
        <ele>1579.69</ele>
        <time>2022-10-22T11:27:49.000Z</time>
      </trkpt>
      <trkpt lat="45.10648" lon="2.6492">
        <ele>1580.94</ele>
        <time>2022-10-22T11:27:58.715Z</time>
      </trkpt>
      <trkpt lat="45.10645" lon="2.64927">
        <ele>1581.94</ele>
        <time>2022-10-22T11:28:08.000Z</time>
      </trkpt>
      <trkpt lat="45.10644" lon="2.64937">
        <ele>1583.93</ele>
        <time>2022-10-22T11:28:19.000Z</time>
      </trkpt>
      <trkpt lat="45.10641" lon="2.64946">
        <ele>1586.69</ele>
        <time>2022-10-22T11:28:29.000Z</time>
      </trkpt>
      <trkpt lat="45.10637" lon="2.64953">
        <ele>1586.94</ele>
        <time>2022-10-22T11:28:38.522Z</time>
      </trkpt>
      <trkpt lat="45.10632" lon="2.64961">
        <ele>1588.93</ele>
        <time>2022-10-22T11:28:47.645Z</time>
      </trkpt>
      <trkpt lat="45.10629" lon="2.64969">
        <ele>1590.87</ele>
        <time>2022-10-22T11:28:59.000Z</time>
      </trkpt>
      <trkpt lat="45.10623" lon="2.64978">
        <ele>1591.92</ele>
        <time>2022-10-22T11:29:10.000Z</time>
      </trkpt>
      <trkpt lat="45.1062" lon="2.64989">
        <ele>1592.68</ele>
        <time>2022-10-22T11:29:19.072Z</time>
      </trkpt>
      <trkpt lat="45.10617" lon="2.64996">
        <ele>1593.93</ele>
        <time>2022-10-22T11:29:29.000Z</time>
      </trkpt>
      <trkpt lat="45.10612" lon="2.65006">
        <ele>1594.68</ele>
        <time>2022-10-22T11:29:39.000Z</time>
      </trkpt>
      <trkpt lat="45.10604" lon="2.65013">
        <ele>1596.93</ele>
        <time>2022-10-22T11:29:48.463Z</time>
      </trkpt>
      <trkpt lat="45.10596" lon="2.65019">
        <ele>1596.93</ele>
        <time>2022-10-22T11:29:59.000Z</time>
      </trkpt>
      <trkpt lat="45.10587" lon="2.65028">
        <ele>1596.93</ele>
        <time>2022-10-22T11:30:08.542Z</time>
      </trkpt>
      <trkpt lat="45.1058" lon="2.65036">
        <ele>1596.93</ele>
        <time>2022-10-22T11:30:17.776Z</time>
      </trkpt>
      <trkpt lat="45.10574" lon="2.65042">
        <ele>1596.93</ele>
        <time>2022-10-22T11:30:28.000Z</time>
      </trkpt>
      <trkpt lat="45.10565" lon="2.65051">
        <ele>1597.93</ele>
        <time>2022-10-22T11:30:37.701Z</time>
      </trkpt>
      <trkpt lat="45.10561" lon="2.65057">
        <ele>1598.93</ele>
        <time>2022-10-22T11:30:47.000Z</time>
      </trkpt>
      <trkpt lat="45.10554" lon="2.65062">
        <ele>1600.93</ele>
        <time>2022-10-22T11:30:58.000Z</time>
      </trkpt>
      <trkpt lat="45.10544" lon="2.65068">
        <ele>1601.68</ele>
        <time>2022-10-22T11:31:09.000Z</time>
      </trkpt>
      <trkpt lat="45.10537" lon="2.65072">
        <ele>1601.93</ele>
        <time>2022-10-22T11:31:18.549Z</time>
      </trkpt>
      <trkpt lat="45.10532" lon="2.65077">
        <ele>1602.68</ele>
        <time>2022-10-22T11:31:29.000Z</time>
      </trkpt>
      <trkpt lat="45.10523" lon="2.65085">
        <ele>1602.93</ele>
        <time>2022-10-22T11:31:38.943Z</time>
      </trkpt>
      <trkpt lat="45.10521" lon="2.65093">
        <ele>1603.92</ele>
        <time>2022-10-22T11:31:48.000Z</time>
      </trkpt>
      <trkpt lat="45.10516" lon="2.65103">
        <ele>1602.93</ele>
        <time>2022-10-22T11:31:59.000Z</time>
      </trkpt>
      <trkpt lat="45.10508" lon="2.65116">
        <ele>1602.68</ele>
        <time>2022-10-22T11:32:11.000Z</time>
      </trkpt>
      <trkpt lat="45.105" lon="2.65123">
        <ele>1601</ele>
        <time>2022-10-22T11:32:21.000Z</time>
      </trkpt>
      <trkpt lat="45.10494" lon="2.65129">
        <ele>1599.93</ele>
        <time>2022-10-22T11:32:31.000Z</time>
      </trkpt>
      <trkpt lat="45.10488" lon="2.65139">
        <ele>1596.95</ele>
        <time>2022-10-22T11:32:40.896Z</time>
      </trkpt>
      <trkpt lat="45.10484" lon="2.65147">
        <ele>1595.93</ele>
        <time>2022-10-22T11:32:50.264Z</time>
      </trkpt>
      <trkpt lat="45.10481" lon="2.65153">
        <ele>1595.18</ele>
        <time>2022-10-22T11:33:00.000Z</time>
      </trkpt>
      <trkpt lat="45.10479" lon="2.65165">
        <ele>1593.19</ele>
        <time>2022-10-22T11:33:11.000Z</time>
      </trkpt>
      <trkpt lat="45.10478" lon="2.65181">
        <ele>1591.18</ele>
        <time>2022-10-22T11:33:20.244Z</time>
      </trkpt>
      <trkpt lat="45.10475" lon="2.65191">
        <ele>1589.95</ele>
        <time>2022-10-22T11:33:29.717Z</time>
      </trkpt>
      <trkpt lat="45.10475" lon="2.65201">
        <ele>1589.93</ele>
        <time>2022-10-22T11:33:39.000Z</time>
      </trkpt>
      <trkpt lat="45.10475" lon="2.65206">
        <ele>1589.17</ele>
        <time>2022-10-22T11:33:49.000Z</time>
      </trkpt>
      <trkpt lat="45.10476" lon="2.65219">
        <ele>1588.93</ele>
        <time>2022-10-22T11:33:59.000Z</time>
      </trkpt>
      <trkpt lat="45.10477" lon="2.65232">
        <ele>1588.93</ele>
        <time>2022-10-22T11:34:09.000Z</time>
      </trkpt>
      <trkpt lat="45.10473" lon="2.65249">
        <ele>1587.93</ele>
        <time>2022-10-22T11:34:20.000Z</time>
      </trkpt>
      <trkpt lat="45.10473" lon="2.65264">
        <ele>1587.93</ele>
        <time>2022-10-22T11:34:30.000Z</time>
      </trkpt>
      <trkpt lat="45.10473" lon="2.65281">
        <ele>1586.93</ele>
        <time>2022-10-22T11:34:39.822Z</time>
      </trkpt>
      <trkpt lat="45.10472" lon="2.65292">
        <ele>1585.93</ele>
        <time>2022-10-22T11:34:50.000Z</time>
      </trkpt>
      <trkpt lat="45.10472" lon="2.65308">
        <ele>1586.93</ele>
        <time>2022-10-22T11:35:01.000Z</time>
      </trkpt>
      <trkpt lat="45.10472" lon="2.65321">
        <ele>1585.93</ele>
        <time>2022-10-22T11:35:11.000Z</time>
      </trkpt>
      <trkpt lat="45.10472" lon="2.65314">
        <ele>1584.93</ele>
        <time>2022-10-22T11:35:21.000Z</time>
      </trkpt>
      <trkpt lat="45.10473" lon="2.65317">
        <ele>1585.93</ele>
        <time>2022-10-22T11:35:47.000Z</time>
      </trkpt>
      <trkpt lat="45.10474" lon="2.65326">
        <ele>1584.99</ele>
        <time>2022-10-22T11:35:58.000Z</time>
      </trkpt>
      <trkpt lat="45.10474" lon="2.65339">
        <ele>1585.93</ele>
        <time>2022-10-22T11:36:08.000Z</time>
      </trkpt>
      <trkpt lat="45.10471" lon="2.65349">
        <ele>1585.93</ele>
        <time>2022-10-22T11:36:18.000Z</time>
      </trkpt>
      <trkpt lat="45.10468" lon="2.65354">
        <ele>1584.18</ele>
        <time>2022-10-22T11:36:28.000Z</time>
      </trkpt>
      <trkpt lat="45.10468" lon="2.65355">
        <ele>1583.93</ele>
        <time>2022-10-22T11:36:38.000Z</time>
      </trkpt>
      <trkpt lat="45.10468" lon="2.65357">
        <ele>1582.93</ele>
        <time>2022-10-22T11:37:47.000Z</time>
      </trkpt>
      <trkpt lat="45.10469" lon="2.65367">
        <ele>1582.93</ele>
        <time>2022-10-22T11:37:57.000Z</time>
      </trkpt>
      <trkpt lat="45.10473" lon="2.65371">
        <ele>1583.91</ele>
        <time>2022-10-22T11:38:08.000Z</time>
      </trkpt>
      <trkpt lat="45.10474" lon="2.65382">
        <ele>1585.93</ele>
        <time>2022-10-22T11:38:17.797Z</time>
      </trkpt>
      <trkpt lat="45.10475" lon="2.65392">
        <ele>1585.93</ele>
        <time>2022-10-22T11:38:28.000Z</time>
      </trkpt>
      <trkpt lat="45.10475" lon="2.65404">
        <ele>1585.98</ele>
        <time>2022-10-22T11:38:38.000Z</time>
      </trkpt>
      <trkpt lat="45.10475" lon="2.65414">
        <ele>1586.87</ele>
        <time>2022-10-22T11:38:49.000Z</time>
      </trkpt>
      <trkpt lat="45.10476" lon="2.65419">
        <ele>1586.17</ele>
        <time>2022-10-22T11:39:01.000Z</time>
      </trkpt>
      <trkpt lat="45.10481" lon="2.65423">
        <ele>1584.99</ele>
        <time>2022-10-22T11:39:11.000Z</time>
      </trkpt>
      <trkpt lat="45.10486" lon="2.65435">
        <ele>1584.93</ele>
        <time>2022-10-22T11:39:22.000Z</time>
      </trkpt>
      <trkpt lat="45.10491" lon="2.6544">
        <ele>1583.93</ele>
        <time>2022-10-22T11:39:32.000Z</time>
      </trkpt>
      <trkpt lat="45.10491" lon="2.65442">
        <ele>1583.93</ele>
        <time>2022-10-22T11:39:42.000Z</time>
      </trkpt>
      <trkpt lat="45.10494" lon="2.65447">
        <ele>1583.93</ele>
        <time>2022-10-22T11:39:51.714Z</time>
      </trkpt>
      <trkpt lat="45.10497" lon="2.65451">
        <ele>1582.93</ele>
        <time>2022-10-22T11:40:01.245Z</time>
      </trkpt>
      <trkpt lat="45.10505" lon="2.65456">
        <ele>1582.93</ele>
        <time>2022-10-22T11:40:12.000Z</time>
      </trkpt>
      <trkpt lat="45.10513" lon="2.65468">
        <ele>1583.86</ele>
        <time>2022-10-22T11:40:21.443Z</time>
      </trkpt>
      <trkpt lat="45.10515" lon="2.65472">
        <ele>1583.93</ele>
        <time>2022-10-22T11:40:31.000Z</time>
      </trkpt>
      <trkpt lat="45.10517" lon="2.65477">
        <ele>1584.92</ele>
        <time>2022-10-22T11:40:41.000Z</time>
      </trkpt>
      <trkpt lat="45.10521" lon="2.65485">
        <ele>1583.92</ele>
        <time>2022-10-22T11:40:51.070Z</time>
      </trkpt>
      <trkpt lat="45.10519" lon="2.65491">
        <ele>1584.93</ele>
        <time>2022-10-22T11:41:01.000Z</time>
      </trkpt>
      <trkpt lat="45.1052" lon="2.65501">
        <ele>1585.93</ele>
        <time>2022-10-22T11:41:10.906Z</time>
      </trkpt>
      <trkpt lat="45.10521" lon="2.65504">
        <ele>1585.93</ele>
        <time>2022-10-22T11:41:22.000Z</time>
      </trkpt>
      <trkpt lat="45.10528" lon="2.65513">
        <ele>1584.99</ele>
        <time>2022-10-22T11:41:33.000Z</time>
      </trkpt>
      <trkpt lat="45.10534" lon="2.65524">
        <ele>1585.93</ele>
        <time>2022-10-22T11:41:42.645Z</time>
      </trkpt>
      <trkpt lat="45.10536" lon="2.65531">
        <ele>1586.92</ele>
        <time>2022-10-22T11:41:51.963Z</time>
      </trkpt>
      <trkpt lat="45.10541" lon="2.65537">
        <ele>1587.93</ele>
        <time>2022-10-22T11:42:01.000Z</time>
      </trkpt>
      <trkpt lat="45.10549" lon="2.65545">
        <ele>1587.93</ele>
        <time>2022-10-22T11:42:10.831Z</time>
      </trkpt>
      <trkpt lat="45.10555" lon="2.65551">
        <ele>1584.93</ele>
        <time>2022-10-22T11:42:20.272Z</time>
      </trkpt>
      <trkpt lat="45.10554" lon="2.65551">
        <ele>1585.93</ele>
        <time>2022-10-22T11:42:33.000Z</time>
      </trkpt>
      <trkpt lat="45.10553" lon="2.65551">
        <ele>1585.74</ele>
        <time>2022-10-22T11:43:23.000Z</time>
      </trkpt>
      <trkpt lat="45.10559" lon="2.65557">
        <ele>1584.93</ele>
        <time>2022-10-22T11:43:34.000Z</time>
      </trkpt>
      <trkpt lat="45.10565" lon="2.65571">
        <ele>1583.99</ele>
        <time>2022-10-22T11:43:43.884Z</time>
      </trkpt>
      <trkpt lat="45.10571" lon="2.65578">
        <ele>1584.68</ele>
        <time>2022-10-22T11:43:54.000Z</time>
      </trkpt>
      <trkpt lat="45.1058" lon="2.65585">
        <ele>1583.92</ele>
        <time>2022-10-22T11:44:05.000Z</time>
      </trkpt>
      <trkpt lat="45.10585" lon="2.65594">
        <ele>1584.92</ele>
        <time>2022-10-22T11:44:16.000Z</time>
      </trkpt>
      <trkpt lat="45.10589" lon="2.65607">
        <ele>1585.92</ele>
        <time>2022-10-22T11:44:25.532Z</time>
      </trkpt>
      <trkpt lat="45.10591" lon="2.65618">
        <ele>1585.92</ele>
        <time>2022-10-22T11:44:36.000Z</time>
      </trkpt>
      <trkpt lat="45.10592" lon="2.65628">
        <ele>1587.88</ele>
        <time>2022-10-22T11:44:47.000Z</time>
      </trkpt>
      <trkpt lat="45.10594" lon="2.65638">
        <ele>1588.67</ele>
        <time>2022-10-22T11:44:57.000Z</time>
      </trkpt>
      <trkpt lat="45.10596" lon="2.65648">
        <ele>1587.92</ele>
        <time>2022-10-22T11:45:06.305Z</time>
      </trkpt>
      <trkpt lat="45.10598" lon="2.65657">
        <ele>1588.92</ele>
        <time>2022-10-22T11:45:15.726Z</time>
      </trkpt>
      <trkpt lat="45.10598" lon="2.65666">
        <ele>1589.67</ele>
        <time>2022-10-22T11:45:27.000Z</time>
      </trkpt>
      <trkpt lat="45.10598" lon="2.65668">
        <ele>1590.17</ele>
        <time>2022-10-22T11:45:38.000Z</time>
      </trkpt>
      <trkpt lat="45.10599" lon="2.65677">
        <ele>1591.92</ele>
        <time>2022-10-22T11:45:49.000Z</time>
      </trkpt>
      <trkpt lat="45.10602" lon="2.65684">
        <ele>1591.99</ele>
        <time>2022-10-22T11:45:59.000Z</time>
      </trkpt>
      <trkpt lat="45.10606" lon="2.65687">
        <ele>1592.92</ele>
        <time>2022-10-22T11:46:09.000Z</time>
      </trkpt>
      <trkpt lat="45.10611" lon="2.6569">
        <ele>1592.99</ele>
        <time>2022-10-22T11:46:18.154Z</time>
      </trkpt>
      <trkpt lat="45.10616" lon="2.65699">
        <ele>1591.92</ele>
        <time>2022-10-22T11:46:28.000Z</time>
      </trkpt>
      <trkpt lat="45.10619" lon="2.65716">
        <ele>1591.92</ele>
        <time>2022-10-22T11:46:37.375Z</time>
      </trkpt>
      <trkpt lat="45.10619" lon="2.65729">
        <ele>1591.92</ele>
        <time>2022-10-22T11:46:46.382Z</time>
      </trkpt>
      <trkpt lat="45.10619" lon="2.65739">
        <ele>1590.92</ele>
        <time>2022-10-22T11:46:56.000Z</time>
      </trkpt>
      <trkpt lat="45.10616" lon="2.65749">
        <ele>1588.93</ele>
        <time>2022-10-22T11:47:05.461Z</time>
      </trkpt>
      <trkpt lat="45.10614" lon="2.65759">
        <ele>1587.92</ele>
        <time>2022-10-22T11:47:15.000Z</time>
      </trkpt>
      <trkpt lat="45.10611" lon="2.65776">
        <ele>1587.92</ele>
        <time>2022-10-22T11:47:24.067Z</time>
      </trkpt>
      <trkpt lat="45.10608" lon="2.65787">
        <ele>1587.92</ele>
        <time>2022-10-22T11:47:34.000Z</time>
      </trkpt>
      <trkpt lat="45.10606" lon="2.65803">
        <ele>1586.92</ele>
        <time>2022-10-22T11:47:43.164Z</time>
      </trkpt>
      <trkpt lat="45.106" lon="2.65815">
        <ele>1586.92</ele>
        <time>2022-10-22T11:47:52.764Z</time>
      </trkpt>
      <trkpt lat="45.10599" lon="2.65824">
        <ele>1585.98</ele>
        <time>2022-10-22T11:48:03.000Z</time>
      </trkpt>
      <trkpt lat="45.10596" lon="2.65839">
        <ele>1583.92</ele>
        <time>2022-10-22T11:48:12.482Z</time>
      </trkpt>
      <trkpt lat="45.10595" lon="2.65855">
        <ele>1584.92</ele>
        <time>2022-10-22T11:48:22.018Z</time>
      </trkpt>
      <trkpt lat="45.10594" lon="2.65864">
        <ele>1584.86</ele>
        <time>2022-10-22T11:48:32.000Z</time>
      </trkpt>
      <trkpt lat="45.10596" lon="2.65867">
        <ele>1583.92</ele>
        <time>2022-10-22T11:48:43.000Z</time>
      </trkpt>
      <trkpt lat="45.10599" lon="2.6588">
        <ele>1581.98</ele>
        <time>2022-10-22T11:48:52.883Z</time>
      </trkpt>
      <trkpt lat="45.10594" lon="2.65882">
        <ele>1581.92</ele>
        <time>2022-10-22T11:49:02.704Z</time>
      </trkpt>
      <trkpt lat="45.10592" lon="2.65884">
        <ele>1580.17</ele>
        <time>2022-10-22T11:49:12.000Z</time>
      </trkpt>
      <trkpt lat="45.1059" lon="2.65887">
        <ele>1578.17</ele>
        <time>2022-10-22T11:49:21.783Z</time>
      </trkpt>
      <trkpt lat="45.10586" lon="2.65888">
        <ele>1576.98</ele>
        <time>2022-10-22T11:49:31.645Z</time>
      </trkpt>
      <trkpt lat="45.10584" lon="2.65891">
        <ele>1576.12</ele>
        <time>2022-10-22T11:49:41.000Z</time>
      </trkpt>
      <trkpt lat="45.10583" lon="2.65894">
        <ele>1575.92</ele>
        <time>2022-10-22T11:49:50.683Z</time>
      </trkpt>
      <trkpt lat="45.1058" lon="2.65898">
        <ele>1573.17</ele>
        <time>2022-10-22T11:50:00.000Z</time>
      </trkpt>
      <trkpt lat="45.10576" lon="2.65902">
        <ele>1569.98</ele>
        <time>2022-10-22T11:50:11.000Z</time>
      </trkpt>
      <trkpt lat="45.10573" lon="2.65906">
        <ele>1569.92</ele>
        <time>2022-10-22T11:50:21.000Z</time>
      </trkpt>
      <trkpt lat="45.10572" lon="2.65908">
        <ele>1569.92</ele>
        <time>2022-10-22T11:51:05.000Z</time>
      </trkpt>
      <trkpt lat="45.10569" lon="2.6591">
        <ele>1567.17</ele>
        <time>2022-10-22T11:51:15.000Z</time>
      </trkpt>
      <trkpt lat="45.10564" lon="2.65914">
        <ele>1565.94</ele>
        <time>2022-10-22T11:51:24.461Z</time>
      </trkpt>
      <trkpt lat="45.10561" lon="2.65919">
        <ele>1564.94</ele>
        <time>2022-10-22T11:51:36.000Z</time>
      </trkpt>
      <trkpt lat="45.10555" lon="2.65924">
        <ele>1563.17</ele>
        <time>2022-10-22T11:51:45.335Z</time>
      </trkpt>
      <trkpt lat="45.10552" lon="2.65925">
        <ele>1560.94</ele>
        <time>2022-10-22T11:51:56.000Z</time>
      </trkpt>
      <trkpt lat="45.10547" lon="2.65931">
        <ele>1559.17</ele>
        <time>2022-10-22T11:52:06.000Z</time>
      </trkpt>
      <trkpt lat="45.10544" lon="2.65938">
        <ele>1556.98</ele>
        <time>2022-10-22T11:52:17.000Z</time>
      </trkpt>
      <trkpt lat="45.10538" lon="2.65947">
        <ele>1555.92</ele>
        <time>2022-10-22T11:52:27.005Z</time>
      </trkpt>
      <trkpt lat="45.10533" lon="2.65952">
        <ele>1553.92</ele>
        <time>2022-10-22T11:52:37.000Z</time>
      </trkpt>
      <trkpt lat="45.10532" lon="2.65958">
        <ele>1552.73</ele>
        <time>2022-10-22T11:52:47.000Z</time>
      </trkpt>
      <trkpt lat="45.10528" lon="2.65966">
        <ele>1549.98</ele>
        <time>2022-10-22T11:52:57.000Z</time>
      </trkpt>
      <trkpt lat="45.10523" lon="2.65972">
        <ele>1548.17</ele>
        <time>2022-10-22T11:53:06.561Z</time>
      </trkpt>
      <trkpt lat="45.1052" lon="2.65975">
        <ele>1546.92</ele>
        <time>2022-10-22T11:53:18.000Z</time>
      </trkpt>
      <trkpt lat="45.10516" lon="2.65984">
        <ele>1544.92</ele>
        <time>2022-10-22T11:53:27.404Z</time>
      </trkpt>
      <trkpt lat="45.10514" lon="2.65988">
        <ele>1543.92</ele>
        <time>2022-10-22T11:53:37.000Z</time>
      </trkpt>
      <trkpt lat="45.10513" lon="2.65992">
        <ele>1541.92</ele>
        <time>2022-10-22T11:53:47.000Z</time>
      </trkpt>
      <trkpt lat="45.10509" lon="2.65997">
        <ele>1540.92</ele>
        <time>2022-10-22T11:53:57.000Z</time>
      </trkpt>
      <trkpt lat="45.10503" lon="2.66007">
        <ele>1539.17</ele>
        <time>2022-10-22T11:54:07.000Z</time>
      </trkpt>
      <trkpt lat="45.10497" lon="2.66017">
        <ele>1537.92</ele>
        <time>2022-10-22T11:54:18.000Z</time>
      </trkpt>
      <trkpt lat="45.10494" lon="2.66026">
        <ele>1536.92</ele>
        <time>2022-10-22T11:54:29.000Z</time>
      </trkpt>
      <trkpt lat="45.10491" lon="2.66037">
        <ele>1534.93</ele>
        <time>2022-10-22T11:54:39.000Z</time>
      </trkpt>
      <trkpt lat="45.10487" lon="2.66042">
        <ele>1535.92</ele>
        <time>2022-10-22T11:54:49.000Z</time>
      </trkpt>
      <trkpt lat="45.10482" lon="2.66052">
        <ele>1536.92</ele>
        <time>2022-10-22T11:54:58.582Z</time>
      </trkpt>
      <trkpt lat="45.1048" lon="2.66058">
        <ele>1537.92</ele>
        <time>2022-10-22T11:55:10.000Z</time>
      </trkpt>
      <trkpt lat="45.10478" lon="2.66067">
        <ele>1537.91</ele>
        <time>2022-10-22T11:55:20.001Z</time>
      </trkpt>
      <trkpt lat="45.10477" lon="2.66073">
        <ele>1536.92</ele>
        <time>2022-10-22T11:55:31.000Z</time>
      </trkpt>
      <trkpt lat="45.10471" lon="2.66084">
        <ele>1537.92</ele>
        <time>2022-10-22T11:55:40.629Z</time>
      </trkpt>
      <trkpt lat="45.10467" lon="2.66094">
        <ele>1536.92</ele>
        <time>2022-10-22T11:55:51.000Z</time>
      </trkpt>
      <trkpt lat="45.10464" lon="2.66109">
        <ele>1535.93</ele>
        <time>2022-10-22T11:56:00.603Z</time>
      </trkpt>
      <trkpt lat="45.10457" lon="2.6612">
        <ele>1534.92</ele>
        <time>2022-10-22T11:56:10.011Z</time>
      </trkpt>
      <trkpt lat="45.1045" lon="2.66131">
        <ele>1533.92</ele>
        <time>2022-10-22T11:56:19.486Z</time>
      </trkpt>
      <trkpt lat="45.10442" lon="2.6614">
        <ele>1532.92</ele>
        <time>2022-10-22T11:56:28.884Z</time>
      </trkpt>
      <trkpt lat="45.10439" lon="2.66155">
        <ele>1530.92</ele>
        <time>2022-10-22T11:56:38.184Z</time>
      </trkpt>
      <trkpt lat="45.10434" lon="2.66169">
        <ele>1530.92</ele>
        <time>2022-10-22T11:56:47.464Z</time>
      </trkpt>
      <trkpt lat="45.10433" lon="2.66178">
        <ele>1529.92</ele>
        <time>2022-10-22T11:56:57.000Z</time>
      </trkpt>
      <trkpt lat="45.10434" lon="2.66177">
        <ele>1530.92</ele>
        <time>2022-10-22T11:57:07.000Z</time>
      </trkpt>
      <trkpt lat="45.10435" lon="2.66178">
        <ele>1529.92</ele>
        <time>2022-10-22T11:57:17.000Z</time>
      </trkpt>
      <trkpt lat="45.10435" lon="2.6618">
        <ele>1529.92</ele>
        <time>2022-10-22T11:57:48.000Z</time>
      </trkpt>
      <trkpt lat="45.10436" lon="2.66194">
        <ele>1529.92</ele>
        <time>2022-10-22T11:57:59.000Z</time>
      </trkpt>
      <trkpt lat="45.10434" lon="2.66208">
        <ele>1528.92</ele>
        <time>2022-10-22T11:58:10.000Z</time>
      </trkpt>
      <trkpt lat="45.10427" lon="2.66215">
        <ele>1526.92</ele>
        <time>2022-10-22T11:58:19.733Z</time>
      </trkpt>
      <trkpt lat="45.10416" lon="2.66216">
        <ele>1526.92</ele>
        <time>2022-10-22T11:58:28.961Z</time>
      </trkpt>
      <trkpt lat="45.10414" lon="2.66216">
        <ele>1525.92</ele>
        <time>2022-10-22T11:58:38.000Z</time>
      </trkpt>
      <trkpt lat="45.10415" lon="2.66215">
        <ele>1525.92</ele>
        <time>2022-10-22T11:58:48.000Z</time>
      </trkpt>
      <trkpt lat="45.10416" lon="2.66215">
        <ele>1525.92</ele>
        <time>2022-10-22T11:59:00.000Z</time>
      </trkpt>
      <trkpt lat="45.10415" lon="2.66215">
        <ele>1526.68</ele>
        <time>2022-10-22T12:00:00.000Z</time>
      </trkpt>
      <trkpt lat="45.10414" lon="2.66216">
        <ele>1526.92</ele>
        <time>2022-10-22T12:00:12.000Z</time>
      </trkpt>
      <trkpt lat="45.10413" lon="2.66213">
        <ele>1526.92</ele>
        <time>2022-10-22T12:00:23.000Z</time>
      </trkpt>
      <trkpt lat="45.10412" lon="2.66216">
        <ele>1526.92</ele>
        <time>2022-10-22T12:00:33.000Z</time>
      </trkpt>
      <trkpt lat="45.10413" lon="2.66218">
        <ele>1526.92</ele>
        <time>2022-10-22T12:00:43.000Z</time>
      </trkpt>
      <trkpt lat="45.10414" lon="2.66218">
        <ele>1526.92</ele>
        <time>2022-10-22T12:01:51.000Z</time>
      </trkpt>
    </trkseg>
  </trk>
</gpx>